<?xml version="1.0" encoding="utf-8"?>
<gpx xmlns:xsi="http://www.w3.org/2001/XMLSchema-instance" xmlns:xsd="http://www.w3.org/2001/XMLSchema" version="1.1" creator="Shapelink.com" xmlns="http://www.topografix.com/GPX/1/1" xmlns:gpxtpx="http://www.garmin.com/xmlschemas/TrackPointExtension/v1">
  <metadata>
    <name>Löpning 16.13 km, 2019-05-11</name>
    <desc></desc>
    <author><name>Marian Moron</name></author> 
    <time>2019-05-11T12:11:28Z</time>
  </metadata>
  <trk>
    <name>Löpning 16.13 km, 2019-05-11</name>
    <trkseg>
      <trkpt lat="51.229049960676" lon="4.448279862054">
        <ele>8.6</ele>
        <time>2019-05-11T12:11:28Z</time>
      </trkpt>
      <trkpt lat="51.228905959634" lon="4.448055478591">
        <ele>8.6</ele>
        <time>2019-05-11T12:11:36Z</time>
      </trkpt>
      <trkpt lat="51.228772352148" lon="4.447826568902">
        <ele>9.2</ele>
        <time>2019-05-11T12:11:45Z</time>
      </trkpt>
      <trkpt lat="51.228645869277" lon="4.447595563738">
        <ele>9.2</ele>
        <time>2019-05-11T12:11:55Z</time>
      </trkpt>
      <trkpt lat="51.228516368922" lon="4.44737662851">
        <ele>9.6</ele>
        <time>2019-05-11T12:12:03Z</time>
      </trkpt>
      <trkpt lat="51.228434058664" lon="4.447199435144">
        <ele>9.4</ele>
        <time>2019-05-11T12:12:09Z</time>
      </trkpt>
      <trkpt lat="51.22853581493" lon="4.446962059736">
        <ele>9</ele>
        <time>2019-05-11T12:12:17Z</time>
      </trkpt>
      <trkpt lat="51.228654167358" lon="4.446713787858">
        <ele>9.2</ele>
        <time>2019-05-11T12:12:25Z</time>
      </trkpt>
      <trkpt lat="51.228779644401" lon="4.446473478785">
        <ele>9.2</ele>
        <time>2019-05-11T12:12:33Z</time>
      </trkpt>
      <trkpt lat="51.228933871361" lon="4.446280695085">
        <ele>8.2</ele>
        <time>2019-05-11T12:12:41Z</time>
      </trkpt>
      <trkpt lat="51.229038058378" lon="4.446033512854">
        <ele>6.4</ele>
        <time>2019-05-11T12:12:50Z</time>
      </trkpt>
      <trkpt lat="51.229205780197" lon="4.445823210983">
        <ele>4.2</ele>
        <time>2019-05-11T12:12:58Z</time>
      </trkpt>
      <trkpt lat="51.229347434307" lon="4.445626571609">
        <ele>4</ele>
        <time>2019-05-11T12:13:07Z</time>
      </trkpt>
      <trkpt lat="51.229470229142" lon="4.445390453486">
        <ele>3.6</ele>
        <time>2019-05-11T12:13:15Z</time>
      </trkpt>
      <trkpt lat="51.229624456102" lon="4.445188868791">
        <ele>3.8</ele>
        <time>2019-05-11T12:13:23Z</time>
      </trkpt>
      <trkpt lat="51.229758985597" lon="4.44496515588">
        <ele>5.4</ele>
        <time>2019-05-11T12:13:32Z</time>
      </trkpt>
      <trkpt lat="51.229778096329" lon="4.444956857799">
        <ele>5.8</ele>
        <time>2019-05-11T12:13:33Z</time>
      </trkpt>
      <trkpt lat="51.229814473775" lon="4.444990217761">
        <ele>6</ele>
        <time>2019-05-11T12:13:35Z</time>
      </trkpt>
      <trkpt lat="51.229934083488" lon="4.445242261494">
        <ele>5.4</ele>
        <time>2019-05-11T12:13:42Z</time>
      </trkpt>
      <trkpt lat="51.230037180858" lon="4.445499418186">
        <ele>6.8</ele>
        <time>2019-05-11T12:13:49Z</time>
      </trkpt>
      <trkpt lat="51.230119072021" lon="4.445785324795">
        <ele>7.4</ele>
        <time>2019-05-11T12:13:57Z</time>
      </trkpt>
      <trkpt lat="51.230203729211" lon="4.446076176725">
        <ele>7.8</ele>
        <time>2019-05-11T12:14:05Z</time>
      </trkpt>
      <trkpt lat="51.230290062781" lon="4.446343810792">
        <ele>7.6</ele>
        <time>2019-05-11T12:14:13Z</time>
      </trkpt>
      <trkpt lat="51.230358459085" lon="4.446614965257">
        <ele>7.4</ele>
        <time>2019-05-11T12:14:21Z</time>
      </trkpt>
      <trkpt lat="51.23043934442" lon="4.446875726166">
        <ele>7</ele>
        <time>2019-05-11T12:14:29Z</time>
      </trkpt>
      <trkpt lat="51.230532551148" lon="4.44714780264">
        <ele>7.8</ele>
        <time>2019-05-11T12:14:37Z</time>
      </trkpt>
      <trkpt lat="51.230602204737" lon="4.447416358716">
        <ele>8.2</ele>
        <time>2019-05-11T12:14:45Z</time>
      </trkpt>
      <trkpt lat="51.230685185547" lon="4.447690195389">
        <ele>8.8</ele>
        <time>2019-05-11T12:14:53Z</time>
      </trkpt>
      <trkpt lat="51.230740841363" lon="4.447968558288">
        <ele>8</ele>
        <time>2019-05-11T12:15:01Z</time>
      </trkpt>
      <trkpt lat="51.230808064201" lon="4.448249016662">
        <ele>8.2</ele>
        <time>2019-05-11T12:15:09Z</time>
      </trkpt>
      <trkpt lat="51.23087604141" lon="4.448519249118">
        <ele>6.8</ele>
        <time>2019-05-11T12:15:17Z</time>
      </trkpt>
      <trkpt lat="51.230939408574" lon="4.448822673898">
        <ele>6.4</ele>
        <time>2019-05-11T12:15:25Z</time>
      </trkpt>
      <trkpt lat="51.231006882869" lon="4.449106149756">
        <ele>6.4</ele>
        <time>2019-05-11T12:15:33Z</time>
      </trkpt>
      <trkpt lat="51.231099586683" lon="4.449360791878">
        <ele>8</ele>
        <time>2019-05-11T12:15:41Z</time>
      </trkpt>
      <trkpt lat="51.231160858372" lon="4.449637813673">
        <ele>8.4</ele>
        <time>2019-05-11T12:15:49Z</time>
      </trkpt>
      <trkpt lat="51.23121718474" lon="4.449945848498">
        <ele>9</ele>
        <time>2019-05-11T12:15:57Z</time>
      </trkpt>
      <trkpt lat="51.231250125607" lon="4.450249273278">
        <ele>6.6</ele>
        <time>2019-05-11T12:16:05Z</time>
      </trkpt>
      <trkpt lat="51.231296142238" lon="4.450556805189">
        <ele>4</ele>
        <time>2019-05-11T12:16:13Z</time>
      </trkpt>
      <trkpt lat="51.231344841077" lon="4.450839442857">
        <ele>3</ele>
        <time>2019-05-11T12:16:21Z</time>
      </trkpt>
      <trkpt lat="51.231397060314" lon="4.451131552072">
        <ele>2</ele>
        <time>2019-05-11T12:16:29Z</time>
      </trkpt>
      <trkpt lat="51.231425474955" lon="4.451414022102">
        <ele>0.4</ele>
        <time>2019-05-11T12:16:37Z</time>
      </trkpt>
      <trkpt lat="51.23146612717" lon="4.451710909">
        <ele>0</ele>
        <time>2019-05-11T12:16:45Z</time>
      </trkpt>
      <trkpt lat="51.231530332524" lon="4.452007963536">
        <ele>1.4</ele>
        <time>2019-05-11T12:16:53Z</time>
      </trkpt>
      <trkpt lat="51.231594789335" lon="4.452317590922">
        <ele>2.8</ele>
        <time>2019-05-11T12:17:01Z</time>
      </trkpt>
      <trkpt lat="51.231646002744" lon="4.452622105349">
        <ele>2.6</ele>
        <time>2019-05-11T12:17:09Z</time>
      </trkpt>
      <trkpt lat="51.231692354651" lon="4.452926200681">
        <ele>3.8</ele>
        <time>2019-05-11T12:17:17Z</time>
      </trkpt>
      <trkpt lat="51.231737030178" lon="4.45322384195">
        <ele>2.6</ele>
        <time>2019-05-11T12:17:25Z</time>
      </trkpt>
      <trkpt lat="51.231800984075" lon="4.453495918424">
        <ele>2.6</ele>
        <time>2019-05-11T12:17:33Z</time>
      </trkpt>
      <trkpt lat="51.231843564127" lon="4.453789117286">
        <ele>1.2</ele>
        <time>2019-05-11T12:17:41Z</time>
      </trkpt>
      <trkpt lat="51.231932747543" lon="4.454275518943">
        <ele>3.4</ele>
        <time>2019-05-11T12:17:54Z</time>
      </trkpt>
      <trkpt lat="51.23200592153" lon="4.454542482458">
        <ele>5.4</ele>
        <time>2019-05-11T12:18:01Z</time>
      </trkpt>
      <trkpt lat="51.232067277038" lon="4.454845907238">
        <ele>6</ele>
        <time>2019-05-11T12:18:09Z</time>
      </trkpt>
      <trkpt lat="51.232102397199" lon="4.455134412236">
        <ele>5.4</ele>
        <time>2019-05-11T12:18:17Z</time>
      </trkpt>
      <trkpt lat="51.232151850409" lon="4.455425934718">
        <ele>5.2</ele>
        <time>2019-05-11T12:18:26Z</time>
      </trkpt>
      <trkpt lat="51.232189066045" lon="4.455723659806">
        <ele>3.2</ele>
        <time>2019-05-11T12:18:34Z</time>
      </trkpt>
      <trkpt lat="51.232238435436" lon="4.45600411818">
        <ele>1.4</ele>
        <time>2019-05-11T12:18:42Z</time>
      </trkpt>
      <trkpt lat="51.23229593527" lon="4.456312069186">
        <ele>1.8</ele>
        <time>2019-05-11T12:18:50Z</time>
      </trkpt>
      <trkpt lat="51.23233952115" lon="4.456600825641">
        <ele>2.2</ele>
        <time>2019-05-11T12:18:58Z</time>
      </trkpt>
      <trkpt lat="51.232342957729" lon="4.456813222987">
        <ele>1.8</ele>
        <time>2019-05-11T12:19:04Z</time>
      </trkpt>
      <trkpt lat="51.232170793503" lon="4.456744575226">
        <ele>4</ele>
        <time>2019-05-11T12:19:12Z</time>
      </trkpt>
      <trkpt lat="51.231993097223" lon="4.456663857529">
        <ele>7</ele>
        <time>2019-05-11T12:19:20Z</time>
      </trkpt>
      <trkpt lat="51.231817831694" lon="4.456552462078">
        <ele>14.2</ele>
        <time>2019-05-11T12:19:29Z</time>
      </trkpt>
      <trkpt lat="51.231636112102" lon="4.456439306428">
        <ele>18.6</ele>
        <time>2019-05-11T12:19:38Z</time>
      </trkpt>
      <trkpt lat="51.231541061356" lon="4.456445173758">
        <ele>20</ele>
        <time>2019-05-11T12:19:42Z</time>
      </trkpt>
      <trkpt lat="51.231521782986" lon="4.456472917847">
        <ele>20</ele>
        <time>2019-05-11T12:19:44Z</time>
      </trkpt>
      <trkpt lat="51.231360850506" lon="4.456652458145">
        <ele>13.4</ele>
        <time>2019-05-11T12:19:57Z</time>
      </trkpt>
      <trkpt lat="51.231313995685" lon="4.45695462564">
        <ele>7.2</ele>
        <time>2019-05-11T12:20:06Z</time>
      </trkpt>
      <trkpt lat="51.231302177206" lon="4.457249752339">
        <ele>5.2</ele>
        <time>2019-05-11T12:20:15Z</time>
      </trkpt>
      <trkpt lat="51.231268817244" lon="4.457547058332">
        <ele>4.6</ele>
        <time>2019-05-11T12:20:23Z</time>
      </trkpt>
      <trkpt lat="51.231104280547" lon="4.457719809291">
        <ele>6.6</ele>
        <time>2019-05-11T12:20:31Z</time>
      </trkpt>
      <trkpt lat="51.230923734421" lon="4.457751995787">
        <ele>6.2</ele>
        <time>2019-05-11T12:20:38Z</time>
      </trkpt>
      <trkpt lat="51.230743355933" lon="4.457804466481">
        <ele>4.6</ele>
        <time>2019-05-11T12:20:47Z</time>
      </trkpt>
      <trkpt lat="51.23057094025" lon="4.457880741771">
        <ele>4.8</ele>
        <time>2019-05-11T12:20:58Z</time>
      </trkpt>
      <trkpt lat="51.230387544278" lon="4.457883256341">
        <ele>2</ele>
        <time>2019-05-11T12:21:06Z</time>
      </trkpt>
      <trkpt lat="51.230192162189" lon="4.457911922439">
        <ele>5.4</ele>
        <time>2019-05-11T12:21:14Z</time>
      </trkpt>
      <trkpt lat="51.22999761829" lon="4.457971182472">
        <ele>3</ele>
        <time>2019-05-11T12:21:19Z</time>
      </trkpt>
      <trkpt lat="51.229952775125" lon="4.457989538833">
        <ele>2.8</ele>
        <time>2019-05-11T12:21:22Z</time>
      </trkpt>
      <trkpt lat="51.229869626677" lon="4.457958609622">
        <ele>9.4</ele>
        <time>2019-05-11T12:26:02Z</time>
      </trkpt>
      <trkpt lat="51.229894688558" lon="4.457952490835">
        <ele>8.6</ele>
        <time>2019-05-11T12:26:04Z</time>
      </trkpt>
      <trkpt lat="51.229932490927" lon="4.457963890219">
        <ele>8.8</ele>
        <time>2019-05-11T12:26:07Z</time>
      </trkpt>
      <trkpt lat="51.229958726274" lon="4.458258430185">
        <ele>1.8</ele>
        <time>2019-05-11T12:26:15Z</time>
      </trkpt>
      <trkpt lat="51.230016645203" lon="4.458550204124">
        <ele>0</ele>
        <time>2019-05-11T12:26:24Z</time>
      </trkpt>
      <trkpt lat="51.230069115897" lon="4.458749777163">
        <ele>0</ele>
        <time>2019-05-11T12:26:30Z</time>
      </trkpt>
      <trkpt lat="51.230267347832" lon="4.458765702773">
        <ele>0</ele>
        <time>2019-05-11T12:26:39Z</time>
      </trkpt>
      <trkpt lat="51.230462646102" lon="4.458833931439">
        <ele>3.2</ele>
        <time>2019-05-11T12:26:47Z</time>
      </trkpt>
      <trkpt lat="51.230531293863" lon="4.458889419617">
        <ele>3.8</ele>
        <time>2019-05-11T12:26:51Z</time>
      </trkpt>
      <trkpt lat="51.230541687419" lon="4.458952954419">
        <ele>3</ele>
        <time>2019-05-11T12:26:53Z</time>
      </trkpt>
      <trkpt lat="51.230572448992" lon="4.459274065008">
        <ele>4.2</ele>
        <time>2019-05-11T12:27:01Z</time>
      </trkpt>
      <trkpt lat="51.230610670456" lon="4.459582686566">
        <ele>3.2</ele>
        <time>2019-05-11T12:27:09Z</time>
      </trkpt>
      <trkpt lat="51.23066314115" lon="4.459768345651">
        <ele>4.8</ele>
        <time>2019-05-11T12:27:15Z</time>
      </trkpt>
      <trkpt lat="51.230853745556" lon="4.459751162756">
        <ele>6.6</ele>
        <time>2019-05-11T12:27:23Z</time>
      </trkpt>
      <trkpt lat="51.231027502343" lon="4.459674300733">
        <ele>2.8</ele>
        <time>2019-05-11T12:27:31Z</time>
      </trkpt>
      <trkpt lat="51.231217687654" lon="4.459626020989">
        <ele>2</ele>
        <time>2019-05-11T12:27:39Z</time>
      </trkpt>
      <trkpt lat="51.23140410111" lon="4.459648987395">
        <ele>2.8</ele>
        <time>2019-05-11T12:27:45Z</time>
      </trkpt>
      <trkpt lat="51.231605769624" lon="4.4596820959">
        <ele>0</ele>
        <time>2019-05-11T12:27:54Z</time>
      </trkpt>
      <trkpt lat="51.23177961023" lon="4.459790473867">
        <ele>0</ele>
        <time>2019-05-11T12:28:03Z</time>
      </trkpt>
      <trkpt lat="51.231887904378" lon="4.460050815681">
        <ele>0</ele>
        <time>2019-05-11T12:28:11Z</time>
      </trkpt>
      <trkpt lat="51.231985469694" lon="4.460334962091">
        <ele>0</ele>
        <time>2019-05-11T12:28:20Z</time>
      </trkpt>
      <trkpt lat="51.232038024207" lon="4.460625394926">
        <ele>0</ele>
        <time>2019-05-11T12:28:27Z</time>
      </trkpt>
      <trkpt lat="51.23211991537" lon="4.460890849699">
        <ele>0</ele>
        <time>2019-05-11T12:28:34Z</time>
      </trkpt>
      <trkpt lat="51.232184958914" lon="4.461181114896">
        <ele>0</ele>
        <time>2019-05-11T12:28:42Z</time>
      </trkpt>
      <trkpt lat="51.23221463084" lon="4.46147917526">
        <ele>6.4</ele>
        <time>2019-05-11T12:28:50Z</time>
      </trkpt>
      <trkpt lat="51.232297192555" lon="4.462056520532">
        <ele>8.6</ele>
        <time>2019-05-11T12:29:04Z</time>
      </trkpt>
      <trkpt lat="51.232342454815" lon="4.462358268932">
        <ele>7.6</ele>
        <time>2019-05-11T12:29:12Z</time>
      </trkpt>
      <trkpt lat="51.232395009328" lon="4.4626409066">
        <ele>7.2</ele>
        <time>2019-05-11T12:29:19Z</time>
      </trkpt>
      <trkpt lat="51.232457622121" lon="4.462897811835">
        <ele>6.8</ele>
        <time>2019-05-11T12:29:26Z</time>
      </trkpt>
      <trkpt lat="51.232485282391" lon="4.46291834749">
        <ele>5.6</ele>
        <time>2019-05-11T12:29:28Z</time>
      </trkpt>
      <trkpt lat="51.232666331431" lon="4.462818938156">
        <ele>4.4</ele>
        <time>2019-05-11T12:29:37Z</time>
      </trkpt>
      <trkpt lat="51.232700110488" lon="4.462789014773">
        <ele>4</ele>
        <time>2019-05-11T12:29:39Z</time>
      </trkpt>
      <trkpt lat="51.232722490161" lon="4.462777866846">
        <ele>6.2</ele>
        <time>2019-05-11T12:29:47Z</time>
      </trkpt>
      <trkpt lat="51.232901695183" lon="4.462690946543">
        <ele>8.2</ele>
        <time>2019-05-11T12:29:56Z</time>
      </trkpt>
      <trkpt lat="51.233073691771" lon="4.462584328775">
        <ele>8</ele>
        <time>2019-05-11T12:30:04Z</time>
      </trkpt>
      <trkpt lat="51.233209227094" lon="4.46253445647">
        <ele>4.6</ele>
        <time>2019-05-11T12:30:10Z</time>
      </trkpt>
      <trkpt lat="51.233303774926" lon="4.462801168528">
        <ele>0.8</ele>
        <time>2019-05-11T12:30:17Z</time>
      </trkpt>
      <trkpt lat="51.233365884805" lon="4.463105515317">
        <ele>0</ele>
        <time>2019-05-11T12:30:24Z</time>
      </trkpt>
      <trkpt lat="51.233419026051" lon="4.463408521002">
        <ele>0</ele>
        <time>2019-05-11T12:30:31Z</time>
      </trkpt>
      <trkpt lat="51.233472502573" lon="4.463685039883">
        <ele>0</ele>
        <time>2019-05-11T12:30:38Z</time>
      </trkpt>
      <trkpt lat="51.233530672959" lon="4.463993996717">
        <ele>0.4</ele>
        <time>2019-05-11T12:30:46Z</time>
      </trkpt>
      <trkpt lat="51.233613653769" lon="4.46426364244">
        <ele>2.4</ele>
        <time>2019-05-11T12:30:53Z</time>
      </trkpt>
      <trkpt lat="51.233680708969" lon="4.464551057791">
        <ele>3.2</ele>
        <time>2019-05-11T12:31:01Z</time>
      </trkpt>
      <trkpt lat="51.233721109727" lon="4.464860517539">
        <ele>2.6</ele>
        <time>2019-05-11T12:31:09Z</time>
      </trkpt>
      <trkpt lat="51.233757403354" lon="4.465173413866">
        <ele>1.2</ele>
        <time>2019-05-11T12:31:17Z</time>
      </trkpt>
      <trkpt lat="51.233780621217" lon="4.46538597885">
        <ele>0.8</ele>
        <time>2019-05-11T12:31:23Z</time>
      </trkpt>
      <trkpt lat="51.233788919298" lon="4.465446412349">
        <ele>0.4</ele>
        <time>2019-05-11T12:31:26Z</time>
      </trkpt>
      <trkpt lat="51.23379210442" lon="4.465454291335">
        <ele>0.4</ele>
        <time>2019-05-11T12:31:27Z</time>
      </trkpt>
      <trkpt lat="51.233853208471" lon="4.466107995716">
        <ele>0</ele>
        <time>2019-05-11T12:32:06Z</time>
      </trkpt>
      <trkpt lat="51.233913809608" lon="4.466403876786">
        <ele>0</ele>
        <time>2019-05-11T12:32:13Z</time>
      </trkpt>
      <trkpt lat="51.233952282529" lon="4.466700512227">
        <ele>0</ele>
        <time>2019-05-11T12:32:20Z</time>
      </trkpt>
      <trkpt lat="51.23399327002" lon="4.466983317533">
        <ele>0</ele>
        <time>2019-05-11T12:32:27Z</time>
      </trkpt>
      <trkpt lat="51.234042052678" lon="4.467278444232">
        <ele>0</ele>
        <time>2019-05-11T12:32:34Z</time>
      </trkpt>
      <trkpt lat="51.234087901671" lon="4.467592011111">
        <ele>0</ele>
        <time>2019-05-11T12:32:42Z</time>
      </trkpt>
      <trkpt lat="51.234126458411" lon="4.467878169177">
        <ele>0</ele>
        <time>2019-05-11T12:32:49Z</time>
      </trkpt>
      <trkpt lat="51.234185383168" lon="4.468155693886">
        <ele>0</ele>
        <time>2019-05-11T12:32:56Z</time>
      </trkpt>
      <trkpt lat="51.234222012071" lon="4.468457526105">
        <ele>0</ele>
        <time>2019-05-11T12:33:04Z</time>
      </trkpt>
      <trkpt lat="51.234285714511" lon="4.468750305872">
        <ele>0</ele>
        <time>2019-05-11T12:33:12Z</time>
      </trkpt>
      <trkpt lat="51.23434028068" lon="4.469028165857">
        <ele>0.2</ele>
        <time>2019-05-11T12:33:19Z</time>
      </trkpt>
      <trkpt lat="51.234402139102" lon="4.46929781158">
        <ele>2.2</ele>
        <time>2019-05-11T12:33:26Z</time>
      </trkpt>
      <trkpt lat="51.234455028891" lon="4.469607690423">
        <ele>2.2</ele>
        <time>2019-05-11T12:33:34Z</time>
      </trkpt>
      <trkpt lat="51.234487383025" lon="4.469904158226">
        <ele>2.2</ele>
        <time>2019-05-11T12:33:42Z</time>
      </trkpt>
      <trkpt lat="51.234517306408" lon="4.470216551639">
        <ele>2.4</ele>
        <time>2019-05-11T12:33:50Z</time>
      </trkpt>
      <trkpt lat="51.234567262532" lon="4.470527687767">
        <ele>1.8</ele>
        <time>2019-05-11T12:33:58Z</time>
      </trkpt>
      <trkpt lat="51.234622163977" lon="4.470823233561">
        <ele>0.4</ele>
        <time>2019-05-11T12:34:06Z</time>
      </trkpt>
      <trkpt lat="51.234677987431" lon="4.471124311409">
        <ele>0</ele>
        <time>2019-05-11T12:34:14Z</time>
      </trkpt>
      <trkpt lat="51.234743617708" lon="4.471434776985">
        <ele>1.4</ele>
        <time>2019-05-11T12:34:22Z</time>
      </trkpt>
      <trkpt lat="51.234793909108" lon="4.471713056065">
        <ele>4.8</ele>
        <time>2019-05-11T12:34:29Z</time>
      </trkpt>
      <trkpt lat="51.234850235476" lon="4.472021342347">
        <ele>7.8</ele>
        <time>2019-05-11T12:34:37Z</time>
      </trkpt>
      <trkpt lat="51.234901365066" lon="4.472321582005">
        <ele>8</ele>
        <time>2019-05-11T12:34:45Z</time>
      </trkpt>
      <trkpt lat="51.234956685606" lon="4.472627688993">
        <ele>8.2</ele>
        <time>2019-05-11T12:34:53Z</time>
      </trkpt>
      <trkpt lat="51.235000187667" lon="4.472918205647">
        <ele>9.8</ele>
        <time>2019-05-11T12:35:00Z</time>
      </trkpt>
      <trkpt lat="51.235049808515" lon="4.473201765324">
        <ele>8.6</ele>
        <time>2019-05-11T12:35:07Z</time>
      </trkpt>
      <trkpt lat="51.235115438792" lon="4.473475099083">
        <ele>6.8</ele>
        <time>2019-05-11T12:35:14Z</time>
      </trkpt>
      <trkpt lat="51.235163969993" lon="4.473789755609">
        <ele>5.6</ele>
        <time>2019-05-11T12:35:22Z</time>
      </trkpt>
      <trkpt lat="51.235223146207" lon="4.474124444876">
        <ele>4.6</ele>
        <time>2019-05-11T12:35:30Z</time>
      </trkpt>
      <trkpt lat="51.235200682715" lon="4.474265679891">
        <ele>1.8</ele>
        <time>2019-05-11T12:36:55Z</time>
      </trkpt>
      <trkpt lat="51.235289195579" lon="4.474541863496">
        <ele>2.4</ele>
        <time>2019-05-11T12:37:03Z</time>
      </trkpt>
      <trkpt lat="51.235402518867" lon="4.475035976501">
        <ele>0</ele>
        <time>2019-05-11T12:37:16Z</time>
      </trkpt>
      <trkpt lat="51.235474854664" lon="4.475304616396">
        <ele>0</ele>
        <time>2019-05-11T12:37:23Z</time>
      </trkpt>
      <trkpt lat="51.235566049736" lon="4.475583482209">
        <ele>1.8</ele>
        <time>2019-05-11T12:37:30Z</time>
      </trkpt>
      <trkpt lat="51.235652634763" lon="4.475855391045">
        <ele>3.8</ele>
        <time>2019-05-11T12:37:37Z</time>
      </trkpt>
      <trkpt lat="51.235721953076" lon="4.476159067282">
        <ele>3.6</ele>
        <time>2019-05-11T12:37:45Z</time>
      </trkpt>
      <trkpt lat="51.235782302756" lon="4.47645679237">
        <ele>2.8</ele>
        <time>2019-05-11T12:37:53Z</time>
      </trkpt>
      <trkpt lat="51.235850028508" lon="4.476752338164">
        <ele>1.2</ele>
        <time>2019-05-11T12:38:01Z</time>
      </trkpt>
      <trkpt lat="51.235906438695" lon="4.477050147071">
        <ele>0</ele>
        <time>2019-05-11T12:38:09Z</time>
      </trkpt>
      <trkpt lat="51.235948180557" lon="4.477332617101">
        <ele>2</ele>
        <time>2019-05-11T12:38:17Z</time>
      </trkpt>
      <trkpt lat="51.235926303798" lon="4.477376789714">
        <ele>3</ele>
        <time>2019-05-11T12:38:20Z</time>
      </trkpt>
      <trkpt lat="51.235910629645" lon="4.477387770003">
        <ele>4.6</ele>
        <time>2019-05-11T12:38:26Z</time>
      </trkpt>
      <trkpt lat="51.235879700434" lon="4.477393469695">
        <ele>4</ele>
        <time>2019-05-11T12:38:29Z</time>
      </trkpt>
      <trkpt lat="51.23583812621" lon="4.47739388879">
        <ele>3.6</ele>
        <time>2019-05-11T12:38:32Z</time>
      </trkpt>
      <trkpt lat="51.23563612242" lon="4.477433618996">
        <ele>0</ele>
        <time>2019-05-11T12:38:41Z</time>
      </trkpt>
      <trkpt lat="51.235468735877" lon="4.477553815442">
        <ele>0</ele>
        <time>2019-05-11T12:38:47Z</time>
      </trkpt>
      <trkpt lat="51.235296906927" lon="4.477667893101">
        <ele>0</ele>
        <time>2019-05-11T12:38:53Z</time>
      </trkpt>
      <trkpt lat="51.235146284184" lon="4.477838883861">
        <ele>0</ele>
        <time>2019-05-11T12:39:00Z</time>
      </trkpt>
      <trkpt lat="51.234996667269" lon="4.4780552207">
        <ele>0</ele>
        <time>2019-05-11T12:39:07Z</time>
      </trkpt>
      <trkpt lat="51.23486834038" lon="4.478282537828">
        <ele>1.4</ele>
        <time>2019-05-11T12:39:14Z</time>
      </trkpt>
      <trkpt lat="51.234710173927" lon="4.478439279358">
        <ele>1.4</ele>
        <time>2019-05-11T12:39:21Z</time>
      </trkpt>
      <trkpt lat="51.234542368289" lon="4.478570120817">
        <ele>1.8</ele>
        <time>2019-05-11T12:39:29Z</time>
      </trkpt>
      <trkpt lat="51.234343968716" lon="4.478626614823">
        <ele>1.8</ele>
        <time>2019-05-11T12:39:38Z</time>
      </trkpt>
      <trkpt lat="51.234143892763" lon="4.478661399708">
        <ele>0.8</ele>
        <time>2019-05-11T12:39:47Z</time>
      </trkpt>
      <trkpt lat="51.233955383832" lon="4.478678666422">
        <ele>0</ele>
        <time>2019-05-11T12:39:54Z</time>
      </trkpt>
      <trkpt lat="51.233758912096" lon="4.478701800466">
        <ele>0</ele>
        <time>2019-05-11T12:40:02Z</time>
      </trkpt>
      <trkpt lat="51.23356327855" lon="4.478714457135">
        <ele>0</ele>
        <time>2019-05-11T12:40:10Z</time>
      </trkpt>
      <trkpt lat="51.233368483194" lon="4.47880623894">
        <ele>0</ele>
        <time>2019-05-11T12:40:18Z</time>
      </trkpt>
      <trkpt lat="51.233220542659" lon="4.478971530008">
        <ele>0</ele>
        <time>2019-05-11T12:40:25Z</time>
      </trkpt>
      <trkpt lat="51.233076793074" lon="4.479199433869">
        <ele>0</ele>
        <time>2019-05-11T12:40:33Z</time>
      </trkpt>
      <trkpt lat="51.23294134157" lon="4.479391127922">
        <ele>2.2</ele>
        <time>2019-05-11T12:40:40Z</time>
      </trkpt>
      <trkpt lat="51.232802537306" lon="4.479574691532">
        <ele>3.4</ele>
        <time>2019-05-11T12:40:47Z</time>
      </trkpt>
      <trkpt lat="51.23263624041" lon="4.479742580989">
        <ele>3.6</ele>
        <time>2019-05-11T12:40:56Z</time>
      </trkpt>
      <trkpt lat="51.232441612692" lon="4.479773845476">
        <ele>2.6</ele>
        <time>2019-05-11T12:41:04Z</time>
      </trkpt>
      <trkpt lat="51.232265006059" lon="4.479650547727">
        <ele>2.6</ele>
        <time>2019-05-11T12:41:12Z</time>
      </trkpt>
      <trkpt lat="51.232091668367" lon="4.479508306884">
        <ele>1.4</ele>
        <time>2019-05-11T12:41:20Z</time>
      </trkpt>
      <trkpt lat="51.231921515797" lon="4.479381321099">
        <ele>0</ele>
        <time>2019-05-11T12:41:28Z</time>
      </trkpt>
      <trkpt lat="51.23187767846" lon="4.479377968339">
        <ele>0</ele>
        <time>2019-05-11T12:41:29Z</time>
      </trkpt>
      <trkpt lat="51.231819256617" lon="4.479643339293">
        <ele>0.8</ele>
        <time>2019-05-11T12:41:39Z</time>
      </trkpt>
      <trkpt lat="51.231831913286" lon="4.479956570896">
        <ele>0.8</ele>
        <time>2019-05-11T12:41:47Z</time>
      </trkpt>
      <trkpt lat="51.231845324326" lon="4.480251697595">
        <ele>0.6</ele>
        <time>2019-05-11T12:41:54Z</time>
      </trkpt>
      <trkpt lat="51.231889329301" lon="4.480572221451">
        <ele>3</ele>
        <time>2019-05-11T12:42:02Z</time>
      </trkpt>
      <trkpt lat="51.231867871637" lon="4.480884279588">
        <ele>6.4</ele>
        <time>2019-05-11T12:42:11Z</time>
      </trkpt>
      <trkpt lat="51.231872565501" lon="4.48119508044">
        <ele>7.2</ele>
        <time>2019-05-11T12:42:19Z</time>
      </trkpt>
      <trkpt lat="51.231905506368" lon="4.481504037274">
        <ele>8.2</ele>
        <time>2019-05-11T12:42:27Z</time>
      </trkpt>
      <trkpt lat="51.231912798621" lon="4.481810898633">
        <ele>9.8</ele>
        <time>2019-05-11T12:42:36Z</time>
      </trkpt>
      <trkpt lat="51.232001898218" lon="4.482093955396">
        <ele>10</ele>
        <time>2019-05-11T12:42:45Z</time>
      </trkpt>
      <trkpt lat="51.232080771897" lon="4.482387405715">
        <ele>8</ele>
        <time>2019-05-11T12:42:53Z</time>
      </trkpt>
      <trkpt lat="51.232155286988" lon="4.482683286785">
        <ele>5.4</ele>
        <time>2019-05-11T12:43:01Z</time>
      </trkpt>
      <trkpt lat="51.232235250314" lon="4.482961649684">
        <ele>6.6</ele>
        <time>2019-05-11T12:43:09Z</time>
      </trkpt>
      <trkpt lat="51.232280344936" lon="4.483161138904">
        <ele>7.4</ele>
        <time>2019-05-11T12:43:15Z</time>
      </trkpt>
      <trkpt lat="51.232214044107" lon="4.483427599505">
        <ele>3.2</ele>
        <time>2019-05-11T12:43:24Z</time>
      </trkpt>
      <trkpt lat="51.232385537781" lon="4.483541341888">
        <ele>2.2</ele>
        <time>2019-05-11T12:43:34Z</time>
      </trkpt>
      <trkpt lat="51.232441109778" lon="4.483709398983">
        <ele>1</ele>
        <time>2019-05-11T12:43:40Z</time>
      </trkpt>
      <trkpt lat="51.23246273508" lon="4.484012320849">
        <ele>1.8</ele>
        <time>2019-05-11T12:43:49Z</time>
      </trkpt>
      <trkpt lat="51.232508667892" lon="4.484307699005">
        <ele>2.4</ele>
        <time>2019-05-11T12:43:57Z</time>
      </trkpt>
      <trkpt lat="51.232523755312" lon="4.484611961975">
        <ele>4.6</ele>
        <time>2019-05-11T12:44:05Z</time>
      </trkpt>
      <trkpt lat="51.232545464433" lon="4.484903400638">
        <ele>3.4</ele>
        <time>2019-05-11T12:44:12Z</time>
      </trkpt>
      <trkpt lat="51.232571364504" lon="4.485221912838">
        <ele>1.8</ele>
        <time>2019-05-11T12:44:19Z</time>
      </trkpt>
      <trkpt lat="51.23257672892" lon="4.485522152496">
        <ele>0</ele>
        <time>2019-05-11T12:44:26Z</time>
      </trkpt>
      <trkpt lat="51.232601204068" lon="4.485844688008">
        <ele>0</ele>
        <time>2019-05-11T12:44:33Z</time>
      </trkpt>
      <trkpt lat="51.232631965641" lon="4.486155237403">
        <ele>0</ele>
        <time>2019-05-11T12:44:39Z</time>
      </trkpt>
      <trkpt lat="51.232654010038" lon="4.486466373531">
        <ele>0</ele>
        <time>2019-05-11T12:44:46Z</time>
      </trkpt>
      <trkpt lat="51.232681418851" lon="4.486753453606">
        <ele>0</ele>
        <time>2019-05-11T12:44:53Z</time>
      </trkpt>
      <trkpt lat="51.232695668081" lon="4.487067271942">
        <ele>1.8</ele>
        <time>2019-05-11T12:45:01Z</time>
      </trkpt>
      <trkpt lat="51.232734141002" lon="4.487355860759">
        <ele>2.4</ele>
        <time>2019-05-11T12:45:08Z</time>
      </trkpt>
      <trkpt lat="51.232761046901" lon="4.487668589448">
        <ele>1.4</ele>
        <time>2019-05-11T12:45:15Z</time>
      </trkpt>
      <trkpt lat="51.232792395207" lon="4.487959106102">
        <ele>2</ele>
        <time>2019-05-11T12:45:21Z</time>
      </trkpt>
      <trkpt lat="51.232825168436" lon="4.488275774284">
        <ele>1.8</ele>
        <time>2019-05-11T12:45:28Z</time>
      </trkpt>
      <trkpt lat="51.232859115131" lon="4.488583306195">
        <ele>1.4</ele>
        <time>2019-05-11T12:45:35Z</time>
      </trkpt>
      <trkpt lat="51.232885015202" lon="4.488874996315">
        <ele>1.4</ele>
        <time>2019-05-11T12:45:42Z</time>
      </trkpt>
      <trkpt lat="51.232907059599" lon="4.489167356987">
        <ele>1.6</ele>
        <time>2019-05-11T12:45:50Z</time>
      </trkpt>
      <trkpt lat="51.232936899163" lon="4.489465584989">
        <ele>0.6</ele>
        <time>2019-05-11T12:45:58Z</time>
      </trkpt>
      <trkpt lat="51.232967912193" lon="4.489779068049">
        <ele>0.6</ele>
        <time>2019-05-11T12:46:05Z</time>
      </trkpt>
      <trkpt lat="51.232987106744" lon="4.490067908323">
        <ele>1</ele>
        <time>2019-05-11T12:46:12Z</time>
      </trkpt>
      <trkpt lat="51.233019544697" lon="4.490382816306">
        <ele>1.2</ele>
        <time>2019-05-11T12:46:20Z</time>
      </trkpt>
      <trkpt lat="51.233058855808" lon="4.490674841702">
        <ele>3.8</ele>
        <time>2019-05-11T12:46:27Z</time>
      </trkpt>
      <trkpt lat="51.233135885469" lon="4.490957814646">
        <ele>4.8</ele>
        <time>2019-05-11T12:46:35Z</time>
      </trkpt>
      <trkpt lat="51.233227080541" lon="4.49122150922">
        <ele>1.4</ele>
        <time>2019-05-11T12:46:44Z</time>
      </trkpt>
      <trkpt lat="51.233320119631" lon="4.491479504102">
        <ele>0.2</ele>
        <time>2019-05-11T12:46:52Z</time>
      </trkpt>
      <trkpt lat="51.233408716314" lon="4.491754514241">
        <ele>0</ele>
        <time>2019-05-11T12:47:00Z</time>
      </trkpt>
      <trkpt lat="51.233502845051" lon="4.492004127223">
        <ele>0</ele>
        <time>2019-05-11T12:47:08Z</time>
      </trkpt>
      <trkpt lat="51.233607786439" lon="4.49226757034">
        <ele>0</ele>
        <time>2019-05-11T12:47:16Z</time>
      </trkpt>
      <trkpt lat="51.233713985112" lon="4.492505113386">
        <ele>0</ele>
        <time>2019-05-11T12:47:23Z</time>
      </trkpt>
      <trkpt lat="51.233818172129" lon="4.492770568159">
        <ele>0.6</ele>
        <time>2019-05-11T12:47:31Z</time>
      </trkpt>
      <trkpt lat="51.233993605296" lon="4.492801413551">
        <ele>0.4</ele>
        <time>2019-05-11T12:47:40Z</time>
      </trkpt>
      <trkpt lat="51.234150598283" lon="4.492750954513">
        <ele>0</ele>
        <time>2019-05-11T12:47:50Z</time>
      </trkpt>
      <trkpt lat="51.234310022021" lon="4.492559176641">
        <ele>0</ele>
        <time>2019-05-11T12:48:00Z</time>
      </trkpt>
      <trkpt lat="51.234476570374" lon="4.492417857807">
        <ele>0</ele>
        <time>2019-05-11T12:48:07Z</time>
      </trkpt>
      <trkpt lat="51.234644208374" lon="4.49224074826">
        <ele>0</ele>
        <time>2019-05-11T12:48:15Z</time>
      </trkpt>
      <trkpt lat="51.234813941849" lon="4.492060118315">
        <ele>1.4</ele>
        <time>2019-05-11T12:48:23Z</time>
      </trkpt>
      <trkpt lat="51.235000522943" lon="4.491992560201">
        <ele>2.4</ele>
        <time>2019-05-11T12:48:31Z</time>
      </trkpt>
      <trkpt lat="51.235156007188" lon="4.492031703674">
        <ele>1.6</ele>
        <time>2019-05-11T12:48:38Z</time>
      </trkpt>
      <trkpt lat="51.235326914129" lon="4.492167406635">
        <ele>2</ele>
        <time>2019-05-11T12:48:46Z</time>
      </trkpt>
      <trkpt lat="51.235500168002" lon="4.492330183133">
        <ele>2.2</ele>
        <time>2019-05-11T12:48:54Z</time>
      </trkpt>
      <trkpt lat="51.235469154972" lon="4.492628243497">
        <ele>2</ele>
        <time>2019-05-11T12:49:02Z</time>
      </trkpt>
      <trkpt lat="51.235399082288" lon="4.492917838142">
        <ele>0.2</ele>
        <time>2019-05-11T12:49:10Z</time>
      </trkpt>
      <trkpt lat="51.235321884989" lon="4.493204415303">
        <ele>0.8</ele>
        <time>2019-05-11T12:49:18Z</time>
      </trkpt>
      <trkpt lat="51.235239155636" lon="4.49349803326">
        <ele>1.6</ele>
        <time>2019-05-11T12:49:26Z</time>
      </trkpt>
      <trkpt lat="51.235130442393" lon="4.493824675903">
        <ele>3.2</ele>
        <time>2019-05-11T12:49:35Z</time>
      </trkpt>
      <trkpt lat="51.235049557058" lon="4.49411242653">
        <ele>1</ele>
        <time>2019-05-11T12:49:43Z</time>
      </trkpt>
      <trkpt lat="51.234964816049" lon="4.494379473864">
        <ele>0</ele>
        <time>2019-05-11T12:49:51Z</time>
      </trkpt>
      <trkpt lat="51.234878985393" lon="4.494672253631">
        <ele>0.6</ele>
        <time>2019-05-11T12:49:59Z</time>
      </trkpt>
      <trkpt lat="51.2348079907" lon="4.494975175497">
        <ele>0.8</ele>
        <time>2019-05-11T12:50:07Z</time>
      </trkpt>
      <trkpt lat="51.234724590795" lon="4.495268877273">
        <ele>0.6</ele>
        <time>2019-05-11T12:50:15Z</time>
      </trkpt>
      <trkpt lat="51.234635826474" lon="4.495561489402">
        <ele>0.2</ele>
        <time>2019-05-11T12:50:23Z</time>
      </trkpt>
      <trkpt lat="51.234552678026" lon="4.495848234201">
        <ele>1.4</ele>
        <time>2019-05-11T12:50:31Z</time>
      </trkpt>
      <trkpt lat="51.23447187651" lon="4.496147970945">
        <ele>1.2</ele>
        <time>2019-05-11T12:50:39Z</time>
      </trkpt>
      <trkpt lat="51.234383112189" lon="4.496432787907">
        <ele>0.8</ele>
        <time>2019-05-11T12:50:47Z</time>
      </trkpt>
      <trkpt lat="51.234302981225" lon="4.496695057558">
        <ele>0.8</ele>
        <time>2019-05-11T12:50:55Z</time>
      </trkpt>
      <trkpt lat="51.234218324035" lon="4.496974929199">
        <ele>0</ele>
        <time>2019-05-11T12:51:03Z</time>
      </trkpt>
      <trkpt lat="51.23413660051" lon="4.4972497717">
        <ele>0.4</ele>
        <time>2019-05-11T12:51:11Z</time>
      </trkpt>
      <trkpt lat="51.234055631356" lon="4.49751715431">
        <ele>2.4</ele>
        <time>2019-05-11T12:51:19Z</time>
      </trkpt>
      <trkpt lat="51.233975500392" lon="4.49777866959">
        <ele>4.4</ele>
        <time>2019-05-11T12:51:27Z</time>
      </trkpt>
      <trkpt lat="51.233885562605" lon="4.498027528201">
        <ele>7</ele>
        <time>2019-05-11T12:51:34Z</time>
      </trkpt>
      <trkpt lat="51.233774334792" lon="4.498290133128">
        <ele>8</ele>
        <time>2019-05-11T12:51:42Z</time>
      </trkpt>
      <trkpt lat="51.233677859123" lon="4.498531867124">
        <ele>8.2</ele>
        <time>2019-05-11T12:51:49Z</time>
      </trkpt>
      <trkpt lat="51.233578198332" lon="4.498775026043">
        <ele>8.8</ele>
        <time>2019-05-11T12:51:56Z</time>
      </trkpt>
      <trkpt lat="51.233462109017" lon="4.499014916021">
        <ele>9</ele>
        <time>2019-05-11T12:52:04Z</time>
      </trkpt>
      <trkpt lat="51.233336380517" lon="4.499231001403">
        <ele>7.4</ele>
        <time>2019-05-11T12:52:12Z</time>
      </trkpt>
      <trkpt lat="51.23321123875" lon="4.499453792305">
        <ele>5.8</ele>
        <time>2019-05-11T12:52:19Z</time>
      </trkpt>
      <trkpt lat="51.233088276277" lon="4.49968136089">
        <ele>3.8</ele>
        <time>2019-05-11T12:52:26Z</time>
      </trkpt>
      <trkpt lat="51.232971013496" lon="4.499916137909">
        <ele>2.2</ele>
        <time>2019-05-11T12:52:33Z</time>
      </trkpt>
      <trkpt lat="51.232850397955" lon="4.500152842765">
        <ele>0</ele>
        <time>2019-05-11T12:52:41Z</time>
      </trkpt>
      <trkpt lat="51.232736571753" lon="4.50039801334">
        <ele>0.4</ele>
        <time>2019-05-11T12:52:48Z</time>
      </trkpt>
      <trkpt lat="51.232603131905" lon="4.500637903318">
        <ele>3.6</ele>
        <time>2019-05-11T12:52:56Z</time>
      </trkpt>
      <trkpt lat="51.232477403405" lon="4.500882906255">
        <ele>6</ele>
        <time>2019-05-11T12:53:04Z</time>
      </trkpt>
      <trkpt lat="51.232343293005" lon="4.501116845084">
        <ele>5.6</ele>
        <time>2019-05-11T12:53:12Z</time>
      </trkpt>
      <trkpt lat="51.23222552731" lon="4.501343994574">
        <ele>6.6</ele>
        <time>2019-05-11T12:53:19Z</time>
      </trkpt>
      <trkpt lat="51.232099128258" lon="4.501576424661">
        <ele>9</ele>
        <time>2019-05-11T12:53:26Z</time>
      </trkpt>
      <trkpt lat="51.231983206581" lon="4.501806759273">
        <ele>6.8</ele>
        <time>2019-05-11T12:53:33Z</time>
      </trkpt>
      <trkpt lat="51.231834427856" lon="4.502009433615">
        <ele>3.6</ele>
        <time>2019-05-11T12:53:41Z</time>
      </trkpt>
      <trkpt lat="51.231711381564" lon="4.502118565953">
        <ele>3</ele>
        <time>2019-05-11T12:53:47Z</time>
      </trkpt>
      <trkpt lat="51.231732587771" lon="4.502421068724">
        <ele>3.2</ele>
        <time>2019-05-11T12:53:56Z</time>
      </trkpt>
      <trkpt lat="51.231633429894" lon="4.502659701417">
        <ele>5.2</ele>
        <time>2019-05-11T12:54:04Z</time>
      </trkpt>
      <trkpt lat="51.231550365265" lon="4.502925072371">
        <ele>6.6</ele>
        <time>2019-05-11T12:54:11Z</time>
      </trkpt>
      <trkpt lat="51.231509629231" lon="4.503231179359">
        <ele>8</ele>
        <time>2019-05-11T12:54:19Z</time>
      </trkpt>
      <trkpt lat="51.23142086491" lon="4.503523204755">
        <ele>8.2</ele>
        <time>2019-05-11T12:54:27Z</time>
      </trkpt>
      <trkpt lat="51.231332352046" lon="4.503785809682">
        <ele>9</ele>
        <time>2019-05-11T12:54:35Z</time>
      </trkpt>
      <trkpt lat="51.231244425915" lon="4.504052437921">
        <ele>8.8</ele>
        <time>2019-05-11T12:54:43Z</time>
      </trkpt>
      <trkpt lat="51.231184243873" lon="4.504341948747">
        <ele>5.8</ele>
        <time>2019-05-11T12:54:51Z</time>
      </trkpt>
      <trkpt lat="51.231142418192" lon="4.50465350397">
        <ele>4.6</ele>
        <time>2019-05-11T12:54:59Z</time>
      </trkpt>
      <trkpt lat="51.231078799571" lon="4.504955671465">
        <ele>0.8</ele>
        <time>2019-05-11T12:55:07Z</time>
      </trkpt>
      <trkpt lat="51.231003613928" lon="4.505247948318">
        <ele>0</ele>
        <time>2019-05-11T12:55:14Z</time>
      </trkpt>
      <trkpt lat="51.230950724139" lon="4.505536453316">
        <ele>0</ele>
        <time>2019-05-11T12:55:21Z</time>
      </trkpt>
      <trkpt lat="51.230781409759" lon="4.506006091173">
        <ele>0</ele>
        <time>2019-05-11T12:55:33Z</time>
      </trkpt>
      <trkpt lat="51.230698931863" lon="4.506288225927">
        <ele>0</ele>
        <time>2019-05-11T12:55:41Z</time>
      </trkpt>
      <trkpt lat="51.230622656573" lon="4.506591734526">
        <ele>0</ele>
        <time>2019-05-11T12:55:49Z</time>
      </trkpt>
      <trkpt lat="51.230546297464" lon="4.506857273118">
        <ele>0</ele>
        <time>2019-05-11T12:55:56Z</time>
      </trkpt>
      <trkpt lat="51.230472955839" lon="4.507153405645">
        <ele>0</ele>
        <time>2019-05-11T12:56:04Z</time>
      </trkpt>
      <trkpt lat="51.23042844795" lon="4.507468816542">
        <ele>0</ele>
        <time>2019-05-11T12:56:12Z</time>
      </trkpt>
      <trkpt lat="51.230384526794" lon="4.507787747837">
        <ele>0</ele>
        <time>2019-05-11T12:56:20Z</time>
      </trkpt>
      <trkpt lat="51.230303054726" lon="4.508045575081">
        <ele>1.2</ele>
        <time>2019-05-11T12:56:27Z</time>
      </trkpt>
      <trkpt lat="51.230239603743" lon="4.508313963519">
        <ele>2</ele>
        <time>2019-05-11T12:56:34Z</time>
      </trkpt>
      <trkpt lat="51.230180762805" lon="4.508617136842">
        <ele>3</ele>
        <time>2019-05-11T12:56:42Z</time>
      </trkpt>
      <trkpt lat="51.230115132528" lon="4.508900109786">
        <ele>3.8</ele>
        <time>2019-05-11T12:56:50Z</time>
      </trkpt>
      <trkpt lat="51.230050088984" lon="4.509181071074">
        <ele>2.8</ele>
        <time>2019-05-11T12:56:57Z</time>
      </trkpt>
      <trkpt lat="51.230026452026" lon="4.509481981284">
        <ele>2.6</ele>
        <time>2019-05-11T12:57:04Z</time>
      </trkpt>
      <trkpt lat="51.229978926653" lon="4.509779622553">
        <ele>4.4</ele>
        <time>2019-05-11T12:57:11Z</time>
      </trkpt>
      <trkpt lat="51.229909273064" lon="4.51005480033">
        <ele>4.6</ele>
        <time>2019-05-11T12:57:18Z</time>
      </trkpt>
      <trkpt lat="51.229862250605" lon="4.51036912158">
        <ele>5.6</ele>
        <time>2019-05-11T12:57:26Z</time>
      </trkpt>
      <trkpt lat="51.229823777684" lon="4.510653016533">
        <ele>7.6</ele>
        <time>2019-05-11T12:57:33Z</time>
      </trkpt>
      <trkpt lat="51.229803074391" lon="4.510941018617">
        <ele>8.6</ele>
        <time>2019-05-11T12:57:40Z</time>
      </trkpt>
      <trkpt lat="51.229730068042" lon="4.511219213878">
        <ele>9.2</ele>
        <time>2019-05-11T12:57:47Z</time>
      </trkpt>
      <trkpt lat="51.229638789151" lon="4.511496151854">
        <ele>7.6</ele>
        <time>2019-05-11T12:57:55Z</time>
      </trkpt>
      <trkpt lat="51.229574835254" lon="4.511794547494">
        <ele>6.8</ele>
        <time>2019-05-11T12:58:02Z</time>
      </trkpt>
      <trkpt lat="51.229516329592" lon="4.512096379713">
        <ele>4.6</ele>
        <time>2019-05-11T12:58:11Z</time>
      </trkpt>
      <trkpt lat="51.229423793416" lon="4.512342053202">
        <ele>3</ele>
        <time>2019-05-11T12:58:18Z</time>
      </trkpt>
      <trkpt lat="51.22935556475" lon="4.512613626762">
        <ele>2</ele>
        <time>2019-05-11T12:58:25Z</time>
      </trkpt>
      <trkpt lat="51.229282139306" lon="4.512886960521">
        <ele>1.2</ele>
        <time>2019-05-11T12:58:32Z</time>
      </trkpt>
      <trkpt lat="51.22922396892" lon="4.513163144126">
        <ele>0</ele>
        <time>2019-05-11T12:58:39Z</time>
      </trkpt>
      <trkpt lat="51.229160434118" lon="4.513449386011">
        <ele>0.2</ele>
        <time>2019-05-11T12:58:47Z</time>
      </trkpt>
      <trkpt lat="51.229098827153" lon="4.513721546304">
        <ele>2.4</ele>
        <time>2019-05-11T12:58:55Z</time>
      </trkpt>
      <trkpt lat="51.229031101401" lon="4.51399094057">
        <ele>3.8</ele>
        <time>2019-05-11T12:59:03Z</time>
      </trkpt>
      <trkpt lat="51.228955077568" lon="4.514274416428">
        <ele>4</ele>
        <time>2019-05-11T12:59:11Z</time>
      </trkpt>
      <trkpt lat="51.22889623663" lon="4.514564849263">
        <ele>3.2</ele>
        <time>2019-05-11T12:59:18Z</time>
      </trkpt>
      <trkpt lat="51.22884594523" lon="4.51486936369">
        <ele>1.8</ele>
        <time>2019-05-11T12:59:25Z</time>
      </trkpt>
      <trkpt lat="51.228770256673" lon="4.515161640543">
        <ele>2</ele>
        <time>2019-05-11T12:59:33Z</time>
      </trkpt>
      <trkpt lat="51.228706386595" lon="4.515441428365">
        <ele>1.6</ele>
        <time>2019-05-11T12:59:40Z</time>
      </trkpt>
      <trkpt lat="51.228667494579" lon="4.515739991643">
        <ele>1.8</ele>
        <time>2019-05-11T12:59:47Z</time>
      </trkpt>
      <trkpt lat="51.228628099649" lon="4.51603612417">
        <ele>1.6</ele>
        <time>2019-05-11T12:59:54Z</time>
      </trkpt>
      <trkpt lat="51.228581580104" lon="4.516342231158">
        <ele>0.4</ele>
        <time>2019-05-11T13:00:02Z</time>
      </trkpt>
      <trkpt lat="51.228522990623" lon="4.51664632649">
        <ele>0.6</ele>
        <time>2019-05-11T13:00:10Z</time>
      </trkpt>
      <trkpt lat="51.22844696679" lon="4.516941285551">
        <ele>0.6</ele>
        <time>2019-05-11T13:00:18Z</time>
      </trkpt>
      <trkpt lat="51.22836147141" lon="4.517206572686">
        <ele>1</ele>
        <time>2019-05-11T13:00:25Z</time>
      </trkpt>
      <trkpt lat="51.228219733481" lon="4.517429028312">
        <ele>4.4</ele>
        <time>2019-05-11T13:00:33Z</time>
      </trkpt>
      <trkpt lat="51.228092831515" lon="4.517684592443">
        <ele>5.6</ele>
        <time>2019-05-11T13:00:41Z</time>
      </trkpt>
      <trkpt lat="51.227987471032" lon="4.517947784103">
        <ele>4.8</ele>
        <time>2019-05-11T13:00:49Z</time>
      </trkpt>
      <trkpt lat="51.227881104721" lon="4.518206784813">
        <ele>4</ele>
        <time>2019-05-11T13:00:57Z</time>
      </trkpt>
      <trkpt lat="51.227786305432" lon="4.518480202391">
        <ele>3.8</ele>
        <time>2019-05-11T13:01:05Z</time>
      </trkpt>
      <trkpt lat="51.227675496714" lon="4.518726630251">
        <ele>2.8</ele>
        <time>2019-05-11T13:01:13Z</time>
      </trkpt>
      <trkpt lat="51.227482796833" lon="4.519123932311">
        <ele>3.4</ele>
        <time>2019-05-11T13:01:26Z</time>
      </trkpt>
      <trkpt lat="51.227303256535" lon="4.519202554533">
        <ele>2.8</ele>
        <time>2019-05-11T13:01:35Z</time>
      </trkpt>
      <trkpt lat="51.227157243837" lon="4.519231639726">
        <ele>5.2</ele>
        <time>2019-05-11T13:01:41Z</time>
      </trkpt>
      <trkpt lat="51.227063785652" lon="4.518970292084">
        <ele>6.4</ele>
        <time>2019-05-11T13:01:49Z</time>
      </trkpt>
      <trkpt lat="51.226989689656" lon="4.518687905873">
        <ele>6.2</ele>
        <time>2019-05-11T13:01:56Z</time>
      </trkpt>
      <trkpt lat="51.226922466818" lon="4.518387582396">
        <ele>7</ele>
        <time>2019-05-11T13:02:04Z</time>
      </trkpt>
      <trkpt lat="51.226883993897" lon="4.518078457924">
        <ele>7.2</ele>
        <time>2019-05-11T13:02:13Z</time>
      </trkpt>
      <trkpt lat="51.226828505719" lon="4.517777715352">
        <ele>8</ele>
        <time>2019-05-11T13:02:22Z</time>
      </trkpt>
      <trkpt lat="51.226776370301" lon="4.517499184815">
        <ele>6.6</ele>
        <time>2019-05-11T13:02:29Z</time>
      </trkpt>
      <trkpt lat="51.226729934575" lon="4.517192323456">
        <ele>8.8</ele>
        <time>2019-05-11T13:02:37Z</time>
      </trkpt>
      <trkpt lat="51.226674949311" lon="4.516915888394">
        <ele>9.6</ele>
        <time>2019-05-11T13:02:45Z</time>
      </trkpt>
      <trkpt lat="51.226621053694" lon="4.516611290148">
        <ele>13.2</ele>
        <time>2019-05-11T13:02:53Z</time>
      </trkpt>
      <trkpt lat="51.226572103398" lon="4.516324880625">
        <ele>13</ele>
        <time>2019-05-11T13:03:01Z</time>
      </trkpt>
      <trkpt lat="51.226517285772" lon="4.516045260441">
        <ele>10.4</ele>
        <time>2019-05-11T13:03:09Z</time>
      </trkpt>
      <trkpt lat="51.226504545284" lon="4.515989269349">
        <ele>10</ele>
        <time>2019-05-11T13:03:11Z</time>
      </trkpt>
      <trkpt lat="51.226499180868" lon="4.515951299342">
        <ele>9.6</ele>
        <time>2019-05-11T13:03:13Z</time>
      </trkpt>
      <trkpt lat="51.226434137324" lon="4.515671260063">
        <ele>6.4</ele>
        <time>2019-05-11T13:03:21Z</time>
      </trkpt>
      <trkpt lat="51.22636993197" lon="4.51540161434">
        <ele>7.2</ele>
        <time>2019-05-11T13:03:28Z</time>
      </trkpt>
      <trkpt lat="51.226307738272" lon="4.515098608655">
        <ele>7.2</ele>
        <time>2019-05-11T13:03:36Z</time>
      </trkpt>
      <trkpt lat="51.226252501551" lon="4.514807589087">
        <ele>8.2</ele>
        <time>2019-05-11T13:03:44Z</time>
      </trkpt>
      <trkpt lat="51.226204557083" lon="4.514496033864">
        <ele>12.4</ele>
        <time>2019-05-11T13:03:52Z</time>
      </trkpt>
      <trkpt lat="51.226165748886" lon="4.514201074803">
        <ele>16</ele>
        <time>2019-05-11T13:03:59Z</time>
      </trkpt>
      <trkpt lat="51.226116547133" lon="4.513908211217">
        <ele>16.6</ele>
        <time>2019-05-11T13:04:06Z</time>
      </trkpt>
      <trkpt lat="51.226081510791" lon="4.513615347631">
        <ele>15.4</ele>
        <time>2019-05-11T13:04:13Z</time>
      </trkpt>
      <trkpt lat="51.226091401433" lon="4.513570672104">
        <ele>14.2</ele>
        <time>2019-05-11T13:04:14Z</time>
      </trkpt>
      <trkpt lat="51.226150912923" lon="4.513392808186">
        <ele>11.8</ele>
        <time>2019-05-11T13:04:19Z</time>
      </trkpt>
      <trkpt lat="51.226065585181" lon="4.513114948201">
        <ele>11.6</ele>
        <time>2019-05-11T13:04:28Z</time>
      </trkpt>
      <trkpt lat="51.226038930739" lon="4.512808925032">
        <ele>7</ele>
        <time>2019-05-11T13:04:36Z</time>
      </trkpt>
      <trkpt lat="51.225985705674" lon="4.512516899636">
        <ele>4</ele>
        <time>2019-05-11T13:04:44Z</time>
      </trkpt>
      <trkpt lat="51.225942538889" lon="4.512222192032">
        <ele>3</ele>
        <time>2019-05-11T13:04:52Z</time>
      </trkpt>
      <trkpt lat="51.225883530313" lon="4.511935195776">
        <ele>4.8</ele>
        <time>2019-05-11T13:04:59Z</time>
      </trkpt>
      <trkpt lat="51.225828964144" lon="4.511634453204">
        <ele>7.6</ele>
        <time>2019-05-11T13:05:07Z</time>
      </trkpt>
      <trkpt lat="51.22575972965" lon="4.511345529111">
        <ele>10.2</ele>
        <time>2019-05-11T13:05:14Z</time>
      </trkpt>
      <trkpt lat="51.225691249527" lon="4.511074123189">
        <ele>10.4</ele>
        <time>2019-05-11T13:05:21Z</time>
      </trkpt>
      <trkpt lat="51.225623691413" lon="4.510769189667">
        <ele>11.4</ele>
        <time>2019-05-11T13:05:29Z</time>
      </trkpt>
      <trkpt lat="51.225562168267" lon="4.510479092108">
        <ele>9.4</ele>
        <time>2019-05-11T13:05:36Z</time>
      </trkpt>
      <trkpt lat="51.225508105012" lon="4.510179523002">
        <ele>9.6</ele>
        <time>2019-05-11T13:05:43Z</time>
      </trkpt>
      <trkpt lat="51.225463429485" lon="4.509886156502">
        <ele>9</ele>
        <time>2019-05-11T13:05:50Z</time>
      </trkpt>
      <trkpt lat="51.225407773669" lon="4.509601423359">
        <ele>8.2</ele>
        <time>2019-05-11T13:05:57Z</time>
      </trkpt>
      <trkpt lat="51.225349687102" lon="4.509288024118">
        <ele>6.4</ele>
        <time>2019-05-11T13:06:04Z</time>
      </trkpt>
      <trkpt lat="51.225277518943" lon="4.508991053401">
        <ele>7</ele>
        <time>2019-05-11T13:06:11Z</time>
      </trkpt>
      <trkpt lat="51.225227479" lon="4.508704727697">
        <ele>6.8</ele>
        <time>2019-05-11T13:06:18Z</time>
      </trkpt>
      <trkpt lat="51.225172242279" lon="4.508417060889">
        <ele>6.8</ele>
        <time>2019-05-11T13:06:25Z</time>
      </trkpt>
      <trkpt lat="51.225120861232" lon="4.508097375223">
        <ele>6.2</ele>
        <time>2019-05-11T13:06:33Z</time>
      </trkpt>
      <trkpt lat="51.225058080801" lon="4.507811049519">
        <ele>6.6</ele>
        <time>2019-05-11T13:06:40Z</time>
      </trkpt>
      <trkpt lat="51.224992701981" lon="4.507510474585">
        <ele>7</ele>
        <time>2019-05-11T13:06:47Z</time>
      </trkpt>
      <trkpt lat="51.224956659811" lon="4.507224400338">
        <ele>8.4</ele>
        <time>2019-05-11T13:06:54Z</time>
      </trkpt>
      <trkpt lat="51.224904692031" lon="4.506942097946">
        <ele>7.8</ele>
        <time>2019-05-11T13:07:01Z</time>
      </trkpt>
      <trkpt lat="51.224896142493" lon="4.506640768641">
        <ele>6</ele>
        <time>2019-05-11T13:07:08Z</time>
      </trkpt>
      <trkpt lat="51.224909469714" lon="4.506346396313">
        <ele>3.4</ele>
        <time>2019-05-11T13:07:16Z</time>
      </trkpt>
      <trkpt lat="51.224904608212" lon="4.506325609201">
        <ele>3.6</ele>
        <time>2019-05-11T13:07:17Z</time>
      </trkpt>
      <trkpt lat="51.224893376466" lon="4.506280682217">
        <ele>3</ele>
        <time>2019-05-11T13:07:20Z</time>
      </trkpt>
      <trkpt lat="51.224885665118" lon="4.505973485582">
        <ele>4.8</ele>
        <time>2019-05-11T13:07:53Z</time>
      </trkpt>
      <trkpt lat="51.224848952396" lon="4.505931911358">
        <ele>13.2</ele>
        <time>2019-05-11T13:08:02Z</time>
      </trkpt>
      <trkpt lat="51.224888095869" lon="4.506001900223">
        <ele>15</ele>
        <time>2019-05-11T13:08:06Z</time>
      </trkpt>
      <trkpt lat="51.224896226312" lon="4.506042468619">
        <ele>15.6</ele>
        <time>2019-05-11T13:08:07Z</time>
      </trkpt>
      <trkpt lat="51.224896896864" lon="4.506132406406">
        <ele>15.4</ele>
        <time>2019-05-11T13:08:11Z</time>
      </trkpt>
      <trkpt lat="51.224849958224" lon="4.506194181009">
        <ele>13.6</ele>
        <time>2019-05-11T13:08:14Z</time>
      </trkpt>
      <trkpt lat="51.224793045123" lon="4.505944568027">
        <ele>11.4</ele>
        <time>2019-05-11T13:08:22Z</time>
      </trkpt>
      <trkpt lat="51.224813245502" lon="4.505917075395">
        <ele>10.4</ele>
        <time>2019-05-11T13:08:23Z</time>
      </trkpt>
      <trkpt lat="51.224900249624" lon="4.505891426781">
        <ele>8.6</ele>
        <time>2019-05-11T13:08:28Z</time>
      </trkpt>
      <trkpt lat="51.22493746526" lon="4.506193007543">
        <ele>6.2</ele>
        <time>2019-05-11T13:08:36Z</time>
      </trkpt>
      <trkpt lat="51.224905362583" lon="4.50627121067">
        <ele>5.6</ele>
        <time>2019-05-11T13:08:38Z</time>
      </trkpt>
      <trkpt lat="51.224860519418" lon="4.506276910362">
        <ele>5.4</ele>
        <time>2019-05-11T13:08:40Z</time>
      </trkpt>
      <trkpt lat="51.224806372344" lon="4.506002403137">
        <ele>7.2</ele>
        <time>2019-05-11T13:08:49Z</time>
      </trkpt>
      <trkpt lat="51.224816346805" lon="4.505970384279">
        <ele>6.8</ele>
        <time>2019-05-11T13:08:50Z</time>
      </trkpt>
      <trkpt lat="51.224898824701" lon="4.505935264118">
        <ele>6.2</ele>
        <time>2019-05-11T13:08:55Z</time>
      </trkpt>
      <trkpt lat="51.224983984805" lon="4.506213291741">
        <ele>8.2</ele>
        <time>2019-05-11T13:09:05Z</time>
      </trkpt>
      <trkpt lat="51.22497183105" lon="4.50630054732">
        <ele>7.4</ele>
        <time>2019-05-11T13:09:07Z</time>
      </trkpt>
      <trkpt lat="51.224932268482" lon="4.506350922539">
        <ele>7.2</ele>
        <time>2019-05-11T13:09:09Z</time>
      </trkpt>
      <trkpt lat="51.224806623801" lon="4.506167861843">
        <ele>7.4</ele>
        <time>2019-05-11T13:09:17Z</time>
      </trkpt>
      <trkpt lat="51.224778544436" lon="4.506012629055">
        <ele>8.6</ele>
        <time>2019-05-11T13:09:21Z</time>
      </trkpt>
      <trkpt lat="51.22482598599" lon="4.505922607449">
        <ele>7.8</ele>
        <time>2019-05-11T13:09:24Z</time>
      </trkpt>
      <trkpt lat="51.224876025933" lon="4.505920092879">
        <ele>7.8</ele>
        <time>2019-05-11T13:09:27Z</time>
      </trkpt>
      <trkpt lat="51.224978201294" lon="4.506202562909">
        <ele>6.2</ele>
        <time>2019-05-11T13:09:36Z</time>
      </trkpt>
      <trkpt lat="51.224983817167" lon="4.506248495721">
        <ele>6.4</ele>
        <time>2019-05-11T13:09:37Z</time>
      </trkpt>
      <trkpt lat="51.224961605132" lon="4.506312449618">
        <ele>5.2</ele>
        <time>2019-05-11T13:09:39Z</time>
      </trkpt>
      <trkpt lat="51.224896645407" lon="4.506303397166">
        <ele>5</ele>
        <time>2019-05-11T13:09:42Z</time>
      </trkpt>
      <trkpt lat="51.224899159977" lon="4.506041714248">
        <ele>5</ele>
        <time>2019-05-11T13:09:52Z</time>
      </trkpt>
      <trkpt lat="51.224876864123" lon="4.506002067861">
        <ele>4.6</ele>
        <time>2019-05-11T13:09:54Z</time>
      </trkpt>
      <trkpt lat="51.224811652941" lon="4.505987734812">
        <ele>4.8</ele>
        <time>2019-05-11T13:09:57Z</time>
      </trkpt>
      <trkpt lat="51.224748788691" lon="4.506129724198">
        <ele>6.6</ele>
        <time>2019-05-11T13:10:02Z</time>
      </trkpt>
      <trkpt lat="51.224805282697" lon="4.50640951202">
        <ele>8.6</ele>
        <time>2019-05-11T13:10:09Z</time>
      </trkpt>
      <trkpt lat="51.224872673173" lon="4.506500371816">
        <ele>6.6</ele>
        <time>2019-05-11T13:10:13Z</time>
      </trkpt>
      <trkpt lat="51.224964874073" lon="4.506258889277">
        <ele>4.8</ele>
        <time>2019-05-11T13:10:21Z</time>
      </trkpt>
      <trkpt lat="51.224963113874" lon="4.506222511831">
        <ele>4.6</ele>
        <time>2019-05-11T13:10:22Z</time>
      </trkpt>
      <trkpt lat="51.224884240195" lon="4.505964768406">
        <ele>0</ele>
        <time>2019-05-11T13:11:35Z</time>
      </trkpt>
      <trkpt lat="51.224870661517" lon="4.505945573855">
        <ele>0</ele>
        <time>2019-05-11T13:11:37Z</time>
      </trkpt>
      <trkpt lat="51.224844007075" lon="4.50592922915">
        <ele>0</ele>
        <time>2019-05-11T13:11:39Z</time>
      </trkpt>
      <trkpt lat="51.22469690473" lon="4.505901065966">
        <ele>5.2</ele>
        <time>2019-05-11T13:11:47Z</time>
      </trkpt>
      <trkpt lat="51.224664718234" lon="4.505609627303">
        <ele>5</ele>
        <time>2019-05-11T13:11:55Z</time>
      </trkpt>
      <trkpt lat="51.224613840101" lon="4.505322631047">
        <ele>4.8</ele>
        <time>2019-05-11T13:12:02Z</time>
      </trkpt>
      <trkpt lat="51.224565979452" lon="4.505056254265">
        <ele>4.4</ele>
        <time>2019-05-11T13:12:10Z</time>
      </trkpt>
      <trkpt lat="51.224553322783" lon="4.505040831569">
        <ele>4.4</ele>
        <time>2019-05-11T13:12:13Z</time>
      </trkpt>
      <trkpt lat="51.224488530696" lon="4.504783004325">
        <ele>7.8</ele>
        <time>2019-05-11T13:12:27Z</time>
      </trkpt>
      <trkpt lat="51.224434886536" lon="4.504503048865">
        <ele>6</ele>
        <time>2019-05-11T13:12:34Z</time>
      </trkpt>
      <trkpt lat="51.224371770829" lon="4.504194846402">
        <ele>5.6</ele>
        <time>2019-05-11T13:12:41Z</time>
      </trkpt>
      <trkpt lat="51.224295495539" lon="4.503899887341">
        <ele>5</ele>
        <time>2019-05-11T13:12:48Z</time>
      </trkpt>
      <trkpt lat="51.224249981822" lon="4.503606939936">
        <ele>3.8</ele>
        <time>2019-05-11T13:12:55Z</time>
      </trkpt>
      <trkpt lat="51.224190889427" lon="4.503299743301">
        <ele>1.8</ele>
        <time>2019-05-11T13:13:03Z</time>
      </trkpt>
      <trkpt lat="51.224117296345" lon="4.503001766756">
        <ele>2.8</ele>
        <time>2019-05-11T13:13:11Z</time>
      </trkpt>
      <trkpt lat="51.224057952493" lon="4.50269046299">
        <ele>3.2</ele>
        <time>2019-05-11T13:13:19Z</time>
      </trkpt>
      <trkpt lat="51.224003218686" lon="4.502395587748">
        <ele>3.6</ele>
        <time>2019-05-11T13:13:27Z</time>
      </trkpt>
      <trkpt lat="51.223947479051" lon="4.502101131601">
        <ele>3.6</ele>
        <time>2019-05-11T13:13:35Z</time>
      </trkpt>
      <trkpt lat="51.223877322548" lon="4.501829138946">
        <ele>5.6</ele>
        <time>2019-05-11T13:13:42Z</time>
      </trkpt>
      <trkpt lat="51.223808171873" lon="4.501529402202">
        <ele>6.4</ele>
        <time>2019-05-11T13:13:49Z</time>
      </trkpt>
      <trkpt lat="51.223752096962" lon="4.501256906633">
        <ele>6.8</ele>
        <time>2019-05-11T13:13:55Z</time>
      </trkpt>
      <trkpt lat="51.223697949888" lon="4.500965048875">
        <ele>4.6</ele>
        <time>2019-05-11T13:14:04Z</time>
      </trkpt>
      <trkpt lat="51.223644641004" lon="4.50065701405">
        <ele>5.8</ele>
        <time>2019-05-11T13:14:12Z</time>
      </trkpt>
      <trkpt lat="51.223595439251" lon="4.500357612582">
        <ele>5.4</ele>
        <time>2019-05-11T13:14:20Z</time>
      </trkpt>
      <trkpt lat="51.223534083743" lon="4.500085703746">
        <ele>4.6</ele>
        <time>2019-05-11T13:14:27Z</time>
      </trkpt>
      <trkpt lat="51.223467950552" lon="4.499804071906">
        <ele>3.2</ele>
        <time>2019-05-11T13:14:34Z</time>
      </trkpt>
      <trkpt lat="51.223404499569" lon="4.499494863615">
        <ele>3</ele>
        <time>2019-05-11T13:14:41Z</time>
      </trkpt>
      <trkpt lat="51.223359572585" lon="4.499184398039">
        <ele>0.8</ele>
        <time>2019-05-11T13:14:48Z</time>
      </trkpt>
      <trkpt lat="51.223304000588" lon="4.498908968805">
        <ele>0</ele>
        <time>2019-05-11T13:14:55Z</time>
      </trkpt>
      <trkpt lat="51.22325102698" lon="4.498627336965">
        <ele>0</ele>
        <time>2019-05-11T13:15:01Z</time>
      </trkpt>
      <trkpt lat="51.223192437499" lon="4.498351656274">
        <ele>0.6</ele>
        <time>2019-05-11T13:15:09Z</time>
      </trkpt>
      <trkpt lat="51.223130243801" lon="4.49805359591">
        <ele>0.8</ele>
        <time>2019-05-11T13:15:17Z</time>
      </trkpt>
      <trkpt lat="51.223075929089" lon="4.497777663762">
        <ele>1.8</ele>
        <time>2019-05-11T13:15:24Z</time>
      </trkpt>
      <trkpt lat="51.223003928568" lon="4.497478932846">
        <ele>4</ele>
        <time>2019-05-11T13:15:32Z</time>
      </trkpt>
      <trkpt lat="51.222901166474" lon="4.497127312141">
        <ele>5.4</ele>
        <time>2019-05-11T13:15:42Z</time>
      </trkpt>
      <trkpt lat="51.222854814567" lon="4.496845345025">
        <ele>5.2</ele>
        <time>2019-05-11T13:15:49Z</time>
      </trkpt>
      <trkpt lat="51.222796476543" lon="4.496535885277">
        <ele>3</ele>
        <time>2019-05-11T13:15:57Z</time>
      </trkpt>
      <trkpt lat="51.222745095496" lon="4.496256935645">
        <ele>1.8</ele>
        <time>2019-05-11T13:16:04Z</time>
      </trkpt>
      <trkpt lat="51.222674016984" lon="4.495970358484">
        <ele>1</ele>
        <time>2019-05-11T13:16:11Z</time>
      </trkpt>
      <trkpt lat="51.222617858254" lon="4.495681434391">
        <ele>3.2</ele>
        <time>2019-05-11T13:16:18Z</time>
      </trkpt>
      <trkpt lat="51.222563124447" lon="4.495394102859">
        <ele>4.6</ele>
        <time>2019-05-11T13:16:25Z</time>
      </trkpt>
      <trkpt lat="51.222489699003" lon="4.49510568168">
        <ele>5</ele>
        <time>2019-05-11T13:16:32Z</time>
      </trkpt>
      <trkpt lat="51.22243127716" lon="4.494814913569">
        <ele>5.6</ele>
        <time>2019-05-11T13:16:39Z</time>
      </trkpt>
      <trkpt lat="51.222372352403" lon="4.494525151286">
        <ele>5.2</ele>
        <time>2019-05-11T13:16:46Z</time>
      </trkpt>
      <trkpt lat="51.22230471047" lon="4.494222313239">
        <ele>3.6</ele>
        <time>2019-05-11T13:16:54Z</time>
      </trkpt>
      <trkpt lat="51.222251569224" lon="4.493923582323">
        <ele>4.6</ele>
        <time>2019-05-11T13:17:02Z</time>
      </trkpt>
      <trkpt lat="51.222198847073" lon="4.493639268275">
        <ele>5.6</ele>
        <time>2019-05-11T13:17:10Z</time>
      </trkpt>
      <trkpt lat="51.222142688343" lon="4.493353110209">
        <ele>5</ele>
        <time>2019-05-11T13:17:18Z</time>
      </trkpt>
      <trkpt lat="51.222079321179" lon="4.493071059274">
        <ele>3.8</ele>
        <time>2019-05-11T13:17:26Z</time>
      </trkpt>
      <trkpt lat="51.222018720042" lon="4.492768724141">
        <ele>3</ele>
        <time>2019-05-11T13:17:34Z</time>
      </trkpt>
      <trkpt lat="51.221963315683" lon="4.492464880266">
        <ele>3</ele>
        <time>2019-05-11T13:17:42Z</time>
      </trkpt>
      <trkpt lat="51.2219082466" lon="4.492179644209">
        <ele>3.4</ele>
        <time>2019-05-11T13:17:49Z</time>
      </trkpt>
      <trkpt lat="51.221845885264" lon="4.491874040135">
        <ele>1.6</ele>
        <time>2019-05-11T13:17:57Z</time>
      </trkpt>
      <trkpt lat="51.221786541412" lon="4.491602634213">
        <ele>0.6</ele>
        <time>2019-05-11T13:18:04Z</time>
      </trkpt>
      <trkpt lat="51.221738596944" lon="4.491313458663">
        <ele>0.4</ele>
        <time>2019-05-11T13:18:11Z</time>
      </trkpt>
      <trkpt lat="51.221675900332" lon="4.491021936181">
        <ele>0.2</ele>
        <time>2019-05-11T13:18:19Z</time>
      </trkpt>
      <trkpt lat="51.221623429638" lon="4.490730832794">
        <ele>0.2</ele>
        <time>2019-05-11T13:18:27Z</time>
      </trkpt>
      <trkpt lat="51.221573724971" lon="4.490436628104">
        <ele>0</ele>
        <time>2019-05-11T13:18:35Z</time>
      </trkpt>
      <trkpt lat="51.221508681427" lon="4.490155499178">
        <ele>0.2</ele>
        <time>2019-05-11T13:18:43Z</time>
      </trkpt>
      <trkpt lat="51.221439614571" lon="4.489851236208">
        <ele>0.8</ele>
        <time>2019-05-11T13:18:51Z</time>
      </trkpt>
      <trkpt lat="51.221381611823" lon="4.489543871935">
        <ele>0.6</ele>
        <time>2019-05-11T13:18:59Z</time>
      </trkpt>
      <trkpt lat="51.22132905731" lon="4.489244554286">
        <ele>1.2</ele>
        <time>2019-05-11T13:19:07Z</time>
      </trkpt>
      <trkpt lat="51.221266947431" lon="4.488955630193">
        <ele>2</ele>
        <time>2019-05-11T13:19:15Z</time>
      </trkpt>
      <trkpt lat="51.221214728194" lon="4.488669639765">
        <ele>3.4</ele>
        <time>2019-05-11T13:19:22Z</time>
      </trkpt>
      <trkpt lat="51.221165526441" lon="4.488368142822">
        <ele>5</ele>
        <time>2019-05-11T13:19:30Z</time>
      </trkpt>
      <trkpt lat="51.221099979983" lon="4.488059940359">
        <ele>6.2</ele>
        <time>2019-05-11T13:19:38Z</time>
      </trkpt>
      <trkpt lat="51.221043402158" lon="4.487770597171">
        <ele>6</ele>
        <time>2019-05-11T13:19:46Z</time>
      </trkpt>
      <trkpt lat="51.220994954776" lon="4.487480583431">
        <ele>7.8</ele>
        <time>2019-05-11T13:19:54Z</time>
      </trkpt>
      <trkpt lat="51.220937035847" lon="4.487181936334">
        <ele>5.8</ele>
        <time>2019-05-11T13:20:02Z</time>
      </trkpt>
      <trkpt lat="51.220869393914" lon="4.486873398595">
        <ele>6.8</ele>
        <time>2019-05-11T13:20:10Z</time>
      </trkpt>
      <trkpt lat="51.220802925447" lon="4.48659889137">
        <ele>7.4</ele>
        <time>2019-05-11T13:20:17Z</time>
      </trkpt>
      <trkpt lat="51.220736540799" lon="4.486293538753">
        <ele>7.2</ele>
        <time>2019-05-11T13:20:25Z</time>
      </trkpt>
      <trkpt lat="51.220683986286" lon="4.486012326008">
        <ele>7.4</ele>
        <time>2019-05-11T13:20:32Z</time>
      </trkpt>
      <trkpt lat="51.220625983538" lon="4.485699764957">
        <ele>7</ele>
        <time>2019-05-11T13:20:40Z</time>
      </trkpt>
      <trkpt lat="51.220557335777" lon="4.48541285252">
        <ele>7.2</ele>
        <time>2019-05-11T13:20:46Z</time>
      </trkpt>
      <trkpt lat="51.220502266694" lon="4.485138680571">
        <ele>5.6</ele>
        <time>2019-05-11T13:20:54Z</time>
      </trkpt>
      <trkpt lat="51.220457591167" lon="4.484818911086">
        <ele>6.2</ele>
        <time>2019-05-11T13:21:02Z</time>
      </trkpt>
      <trkpt lat="51.220404366102" lon="4.484507858777">
        <ele>6.4</ele>
        <time>2019-05-11T13:21:10Z</time>
      </trkpt>
      <trkpt lat="51.220356253996" lon="4.484210720422">
        <ele>6.4</ele>
        <time>2019-05-11T13:21:17Z</time>
      </trkpt>
      <trkpt lat="51.220286181312" lon="4.48392422708">
        <ele>6.6</ele>
        <time>2019-05-11T13:21:24Z</time>
      </trkpt>
      <trkpt lat="51.220169672902" lon="4.48348585371">
        <ele>4.6</ele>
        <time>2019-05-11T13:21:35Z</time>
      </trkpt>
      <trkpt lat="51.220113849448" lon="4.483178573256">
        <ele>5.4</ele>
        <time>2019-05-11T13:21:43Z</time>
      </trkpt>
      <trkpt lat="51.220065234428" lon="4.482891828457">
        <ele>6.8</ele>
        <time>2019-05-11T13:21:51Z</time>
      </trkpt>
      <trkpt lat="51.220008488965" lon="4.482600222156">
        <ele>5.2</ele>
        <time>2019-05-11T13:21:59Z</time>
      </trkpt>
      <trkpt lat="51.219948474561" lon="4.48229730029">
        <ele>7.4</ele>
        <time>2019-05-11T13:22:07Z</time>
      </trkpt>
      <trkpt lat="51.219879323886" lon="4.481989014008">
        <ele>7</ele>
        <time>2019-05-11T13:22:15Z</time>
      </trkpt>
      <trkpt lat="51.219817465464" lon="4.481689780178">
        <ele>6.4</ele>
        <time>2019-05-11T13:22:23Z</time>
      </trkpt>
      <trkpt lat="51.219752338101" lon="4.481389456701">
        <ele>6</ele>
        <time>2019-05-11T13:22:31Z</time>
      </trkpt>
      <trkpt lat="51.219717469397" lon="4.481080499867">
        <ele>5.4</ele>
        <time>2019-05-11T13:22:39Z</time>
      </trkpt>
      <trkpt lat="51.219720151605" lon="4.48096374">
        <ele>5.2</ele>
        <time>2019-05-11T13:22:42Z</time>
      </trkpt>
      <trkpt lat="51.219757199603" lon="4.48090674308">
        <ele>4.8</ele>
        <time>2019-05-11T13:23:13Z</time>
      </trkpt>
      <trkpt lat="51.21968620491" lon="4.480637851728">
        <ele>4.2</ele>
        <time>2019-05-11T13:23:21Z</time>
      </trkpt>
      <trkpt lat="51.219586041205" lon="4.480385137443">
        <ele>5.6</ele>
        <time>2019-05-11T13:23:28Z</time>
      </trkpt>
      <trkpt lat="51.21951269958" lon="4.480117671014">
        <ele>5.6</ele>
        <time>2019-05-11T13:23:35Z</time>
      </trkpt>
      <trkpt lat="51.219449332416" lon="4.479841235952">
        <ele>6</ele>
        <time>2019-05-11T13:23:42Z</time>
      </trkpt>
      <trkpt lat="51.219405830355" lon="4.479545857796">
        <ele>10</ele>
        <time>2019-05-11T13:23:49Z</time>
      </trkpt>
      <trkpt lat="51.219343720476" lon="4.479258693902">
        <ele>9.4</ele>
        <time>2019-05-11T13:23:56Z</time>
      </trkpt>
      <trkpt lat="51.219279096027" lon="4.478981085374">
        <ele>7.4</ele>
        <time>2019-05-11T13:24:03Z</time>
      </trkpt>
      <trkpt lat="51.219213381931" lon="4.478669194875">
        <ele>6.4</ele>
        <time>2019-05-11T13:24:11Z</time>
      </trkpt>
      <trkpt lat="51.219143393066" lon="4.478384964646">
        <ele>7</ele>
        <time>2019-05-11T13:24:18Z</time>
      </trkpt>
      <trkpt lat="51.219084635947" lon="4.478099812408">
        <ele>7.4</ele>
        <time>2019-05-11T13:24:25Z</time>
      </trkpt>
      <trkpt lat="51.219023950991" lon="4.477800746216">
        <ele>7.8</ele>
        <time>2019-05-11T13:24:33Z</time>
      </trkpt>
      <trkpt lat="51.218980281292" lon="4.477520371661">
        <ele>7.2</ele>
        <time>2019-05-11T13:24:40Z</time>
      </trkpt>
      <trkpt lat="51.218916997947" lon="4.477207140058">
        <ele>7.2</ele>
        <time>2019-05-11T13:24:48Z</time>
      </trkpt>
      <trkpt lat="51.218895372645" lon="4.476912264816">
        <ele>3.6</ele>
        <time>2019-05-11T13:24:55Z</time>
      </trkpt>
      <trkpt lat="51.21890333545" lon="4.476624346551">
        <ele>2.4</ele>
        <time>2019-05-11T13:25:02Z</time>
      </trkpt>
      <trkpt lat="51.218920350707" lon="4.476329052214">
        <ele>0</ele>
        <time>2019-05-11T13:25:09Z</time>
      </trkpt>
      <trkpt lat="51.218949854995" lon="4.476031243307">
        <ele>0</ele>
        <time>2019-05-11T13:25:16Z</time>
      </trkpt>
      <trkpt lat="51.218988411735" lon="4.475740475196">
        <ele>0</ele>
        <time>2019-05-11T13:25:23Z</time>
      </trkpt>
      <trkpt lat="51.21902319662" lon="4.475455490596">
        <ele>0</ele>
        <time>2019-05-11T13:25:30Z</time>
      </trkpt>
      <trkpt lat="51.219068626518" lon="4.475143181002">
        <ele>0</ele>
        <time>2019-05-11T13:25:38Z</time>
      </trkpt>
      <trkpt lat="51.219108440543" lon="4.474851239425">
        <ele>0.6</ele>
        <time>2019-05-11T13:25:45Z</time>
      </trkpt>
      <trkpt lat="51.219150769138" lon="4.474571451603">
        <ele>3</ele>
        <time>2019-05-11T13:25:52Z</time>
      </trkpt>
      <trkpt lat="51.219196366674" lon="4.474279426207">
        <ele>4</ele>
        <time>2019-05-11T13:26:00Z</time>
      </trkpt>
      <trkpt lat="51.219255291431" lon="4.473970385554">
        <ele>3</ele>
        <time>2019-05-11T13:26:08Z</time>
      </trkpt>
      <trkpt lat="51.219301391881" lon="4.473689172809">
        <ele>1.2</ele>
        <time>2019-05-11T13:26:15Z</time>
      </trkpt>
      <trkpt lat="51.219337936965" lon="4.473401003087">
        <ele>1.2</ele>
        <time>2019-05-11T13:26:22Z</time>
      </trkpt>
      <trkpt lat="51.219366770701" lon="4.473116018487">
        <ele>0.8</ele>
        <time>2019-05-11T13:26:29Z</time>
      </trkpt>
      <trkpt lat="51.219405997993" lon="4.472817706666">
        <ele>0</ele>
        <time>2019-05-11T13:26:37Z</time>
      </trkpt>
      <trkpt lat="51.21944899714" lon="4.472523837252">
        <ele>0</ele>
        <time>2019-05-11T13:26:45Z</time>
      </trkpt>
      <trkpt lat="51.219487218604" lon="4.472207923441">
        <ele>0</ele>
        <time>2019-05-11T13:26:53Z</time>
      </trkpt>
      <trkpt lat="51.219534827796" lon="4.471931739836">
        <ele>0</ele>
        <time>2019-05-11T13:27:00Z</time>
      </trkpt>
      <trkpt lat="51.219597608227" lon="4.471630075255">
        <ele>0</ele>
        <time>2019-05-11T13:27:08Z</time>
      </trkpt>
      <trkpt lat="51.21966441197" lon="4.471326482837">
        <ele>0</ele>
        <time>2019-05-11T13:27:16Z</time>
      </trkpt>
      <trkpt lat="51.219728617324" lon="4.471018280374">
        <ele>0</ele>
        <time>2019-05-11T13:27:24Z</time>
      </trkpt>
      <trkpt lat="51.219779746914" lon="4.470708820626">
        <ele>0</ele>
        <time>2019-05-11T13:27:32Z</time>
      </trkpt>
      <trkpt lat="51.219822494604" lon="4.470391062797">
        <ele>0</ele>
        <time>2019-05-11T13:27:40Z</time>
      </trkpt>
      <trkpt lat="51.219874630022" lon="4.47011337045">
        <ele>0</ele>
        <time>2019-05-11T13:27:47Z</time>
      </trkpt>
      <trkpt lat="51.219945373258" lon="4.469676505822">
        <ele>0</ele>
        <time>2019-05-11T13:27:57Z</time>
      </trkpt>
      <trkpt lat="51.220000693798" lon="4.469401411864">
        <ele>0</ele>
        <time>2019-05-11T13:28:04Z</time>
      </trkpt>
      <trkpt lat="51.220048722085" lon="4.469080301275">
        <ele>0</ele>
        <time>2019-05-11T13:28:12Z</time>
      </trkpt>
      <trkpt lat="51.220066994627" lon="4.468782240911">
        <ele>0</ele>
        <time>2019-05-11T13:28:19Z</time>
      </trkpt>
      <trkpt lat="51.220071017939" lon="4.468473535534">
        <ele>0</ele>
        <time>2019-05-11T13:28:26Z</time>
      </trkpt>
      <trkpt lat="51.220091134499" lon="4.468175894265">
        <ele>0</ele>
        <time>2019-05-11T13:28:33Z</time>
      </trkpt>
      <trkpt lat="51.220096247458" lon="4.467861740653">
        <ele>0</ele>
        <time>2019-05-11T13:28:40Z</time>
      </trkpt>
      <trkpt lat="51.220090547766" lon="4.467559740796">
        <ele>0</ele>
        <time>2019-05-11T13:28:47Z</time>
      </trkpt>
      <trkpt lat="51.220089206662" lon="4.467254555817">
        <ele>0</ele>
        <time>2019-05-11T13:28:54Z</time>
      </trkpt>
      <trkpt lat="51.220102114788" lon="4.466963787706">
        <ele>0</ele>
        <time>2019-05-11T13:29:01Z</time>
      </trkpt>
      <trkpt lat="51.220123237176" lon="4.466673103414">
        <ele>5.4</ele>
        <time>2019-05-11T13:29:08Z</time>
      </trkpt>
      <trkpt lat="51.220109574679" lon="4.46634486821">
        <ele>4</ele>
        <time>2019-05-11T13:29:16Z</time>
      </trkpt>
      <trkpt lat="51.220066407894" lon="4.466057955773">
        <ele>3.8</ele>
        <time>2019-05-11T13:29:23Z</time>
      </trkpt>
      <trkpt lat="51.220040424004" lon="4.465772132983">
        <ele>5.2</ele>
        <time>2019-05-11T13:29:30Z</time>
      </trkpt>
      <trkpt lat="51.220057103985" lon="4.465474407895">
        <ele>3.2</ele>
        <time>2019-05-11T13:29:38Z</time>
      </trkpt>
      <trkpt lat="51.22007931602" lon="4.465171988943">
        <ele>0</ele>
        <time>2019-05-11T13:29:46Z</time>
      </trkpt>
      <trkpt lat="51.220085350988" lon="4.464882813393">
        <ele>0</ele>
        <time>2019-05-11T13:29:53Z</time>
      </trkpt>
      <trkpt lat="51.220062384582" lon="4.464559188234">
        <ele>0</ele>
        <time>2019-05-11T13:30:02Z</time>
      </trkpt>
      <trkpt lat="51.220062971315" lon="4.464257691291">
        <ele>0</ele>
        <time>2019-05-11T13:30:10Z</time>
      </trkpt>
      <trkpt lat="51.220049308818" lon="4.463962816049">
        <ele>0</ele>
        <time>2019-05-11T13:30:18Z</time>
      </trkpt>
      <trkpt lat="51.219995077925" lon="4.463686883901">
        <ele>0</ele>
        <time>2019-05-11T13:30:26Z</time>
      </trkpt>
      <trkpt lat="51.219905559233" lon="4.463403408043">
        <ele>0</ele>
        <time>2019-05-11T13:30:34Z</time>
      </trkpt>
      <trkpt lat="51.219857279489" lon="4.463120099823">
        <ele>0</ele>
        <time>2019-05-11T13:30:41Z</time>
      </trkpt>
      <trkpt lat="51.219827775201" lon="4.462815836853">
        <ele>0</ele>
        <time>2019-05-11T13:30:49Z</time>
      </trkpt>
      <trkpt lat="51.219814867075" lon="4.462520961611">
        <ele>0</ele>
        <time>2019-05-11T13:30:57Z</time>
      </trkpt>
      <trkpt lat="51.21985132834" lon="4.46223438445">
        <ele>0</ele>
        <time>2019-05-11T13:31:04Z</time>
      </trkpt>
      <trkpt lat="51.219881251723" lon="4.461949818945">
        <ele>0</ele>
        <time>2019-05-11T13:31:11Z</time>
      </trkpt>
      <trkpt lat="51.21994436743" lon="4.461648322002">
        <ele>0</ele>
        <time>2019-05-11T13:31:18Z</time>
      </trkpt>
      <trkpt lat="51.220081243857" lon="4.461394853346">
        <ele>0.4</ele>
        <time>2019-05-11T13:31:24Z</time>
      </trkpt>
      <trkpt lat="51.220172019834" lon="4.461111377488">
        <ele>10.2</ele>
        <time>2019-05-11T13:31:30Z</time>
      </trkpt>
      <trkpt lat="51.220285762217" lon="4.460859333755">
        <ele>12.8</ele>
        <time>2019-05-11T13:31:37Z</time>
      </trkpt>
      <trkpt lat="51.220339909291" lon="4.460564123237">
        <ele>7.8</ele>
        <time>2019-05-11T13:31:46Z</time>
      </trkpt>
      <trkpt lat="51.220353487969" lon="4.460345607104">
        <ele>4.4</ele>
        <time>2019-05-11T13:31:53Z</time>
      </trkpt>
      <trkpt lat="51.220382154067" lon="4.460025837619">
        <ele>3.8</ele>
        <time>2019-05-11T13:32:01Z</time>
      </trkpt>
      <trkpt lat="51.220449460724" lon="4.459734398956">
        <ele>4.6</ele>
        <time>2019-05-11T13:32:08Z</time>
      </trkpt>
      <trkpt lat="51.220467984723" lon="4.459540609428">
        <ele>9</ele>
        <time>2019-05-11T13:32:13Z</time>
      </trkpt>
      <trkpt lat="51.220482736867" lon="4.459253864629">
        <ele>10</ele>
        <time>2019-05-11T13:32:23Z</time>
      </trkpt>
      <trkpt lat="51.220431272001" lon="4.458957815921">
        <ele>5</ele>
        <time>2019-05-11T13:32:31Z</time>
      </trkpt>
      <trkpt lat="51.220376202918" lon="4.458661012842">
        <ele>0.6</ele>
        <time>2019-05-11T13:32:39Z</time>
      </trkpt>
      <trkpt lat="51.22037519709" lon="4.458374435681">
        <ele>0.8</ele>
        <time>2019-05-11T13:32:46Z</time>
      </trkpt>
      <trkpt lat="51.220378382212" lon="4.458065897942">
        <ele>0</ele>
        <time>2019-05-11T13:32:54Z</time>
      </trkpt>
      <trkpt lat="51.220389194863" lon="4.457774794555">
        <ele>0</ele>
        <time>2019-05-11T13:33:02Z</time>
      </trkpt>
      <trkpt lat="51.220379723316" lon="4.457461395314">
        <ele>0</ele>
        <time>2019-05-11T13:33:11Z</time>
      </trkpt>
      <trkpt lat="51.220358768566" lon="4.457155875059">
        <ele>0</ele>
        <time>2019-05-11T13:33:19Z</time>
      </trkpt>
      <trkpt lat="51.220337394721" lon="4.456851695908">
        <ele>0</ele>
        <time>2019-05-11T13:33:27Z</time>
      </trkpt>
      <trkpt lat="51.220309566813" lon="4.456537039382">
        <ele>2.2</ele>
        <time>2019-05-11T13:33:34Z</time>
      </trkpt>
      <trkpt lat="51.220227088917" lon="4.456249037298">
        <ele>0</ele>
        <time>2019-05-11T13:33:42Z</time>
      </trkpt>
      <trkpt lat="51.220091721232" lon="4.455817704724">
        <ele>0</ele>
        <time>2019-05-11T13:33:54Z</time>
      </trkpt>
      <trkpt lat="51.220023073471" lon="4.455565409534">
        <ele>0</ele>
        <time>2019-05-11T13:34:01Z</time>
      </trkpt>
      <trkpt lat="51.220070598844" lon="4.45542744346">
        <ele>0</ele>
        <time>2019-05-11T13:34:20Z</time>
      </trkpt>
      <trkpt lat="51.220055343786" lon="4.455397017163">
        <ele>0</ele>
        <time>2019-05-11T13:34:22Z</time>
      </trkpt>
      <trkpt lat="51.21995274933" lon="4.455123767223">
        <ele>0</ele>
        <time>2019-05-11T13:34:30Z</time>
      </trkpt>
      <trkpt lat="51.219871361081" lon="4.454861832848">
        <ele>0</ele>
        <time>2019-05-11T13:34:37Z</time>
      </trkpt>
      <trkpt lat="51.219778321991" lon="4.454576596791">
        <ele>0</ele>
        <time>2019-05-11T13:34:44Z</time>
      </trkpt>
      <trkpt lat="51.219647983446" lon="4.454323882506">
        <ele>0</ele>
        <time>2019-05-11T13:34:51Z</time>
      </trkpt>
      <trkpt lat="51.21953281614" lon="4.454074688619">
        <ele>0</ele>
        <time>2019-05-11T13:34:58Z</time>
      </trkpt>
      <trkpt lat="51.219447069303" lon="4.45379464934">
        <ele>0</ele>
        <time>2019-05-11T13:35:06Z</time>
      </trkpt>
      <trkpt lat="51.219343971933" lon="4.45353900139">
        <ele>0.2</ele>
        <time>2019-05-11T13:35:14Z</time>
      </trkpt>
      <trkpt lat="51.219253447413" lon="4.453246892175">
        <ele>0.4</ele>
        <time>2019-05-11T13:35:22Z</time>
      </trkpt>
      <trkpt lat="51.219152361699" lon="4.452979006651">
        <ele>1.8</ele>
        <time>2019-05-11T13:35:30Z</time>
      </trkpt>
      <trkpt lat="51.219063010645" lon="4.452709612385">
        <ele>2.6</ele>
        <time>2019-05-11T13:35:39Z</time>
      </trkpt>
      <trkpt lat="51.218974246324" lon="4.452420688292">
        <ele>1.8</ele>
        <time>2019-05-11T13:35:48Z</time>
      </trkpt>
      <trkpt lat="51.219073907115" lon="4.452144001773">
        <ele>0.2</ele>
        <time>2019-05-11T13:35:56Z</time>
      </trkpt>
      <trkpt lat="51.219269456842" lon="4.452075605469">
        <ele>0</ele>
        <time>2019-05-11T13:36:04Z</time>
      </trkpt>
      <trkpt lat="51.219461989085" lon="4.452028163915">
        <ele>0</ele>
        <time>2019-05-11T13:36:12Z</time>
      </trkpt>
      <trkpt lat="51.219651168568" lon="4.452001844749">
        <ele>0</ele>
        <time>2019-05-11T13:36:20Z</time>
      </trkpt>
      <trkpt lat="51.219843952268" lon="4.451978878343">
        <ele>0</ele>
        <time>2019-05-11T13:36:28Z</time>
      </trkpt>
      <trkpt lat="51.220040507823" lon="4.451953229729">
        <ele>0</ele>
        <time>2019-05-11T13:36:36Z</time>
      </trkpt>
      <trkpt lat="51.220243936536" lon="4.4519036927">
        <ele>0</ele>
        <time>2019-05-11T13:36:43Z</time>
      </trkpt>
      <trkpt lat="51.220434457123" lon="4.451836553681">
        <ele>0</ele>
        <time>2019-05-11T13:36:50Z</time>
      </trkpt>
      <trkpt lat="51.220624474796" lon="4.451773186517">
        <ele>0</ele>
        <time>2019-05-11T13:36:57Z</time>
      </trkpt>
      <trkpt lat="51.220810301519" lon="4.451730941741">
        <ele>0</ele>
        <time>2019-05-11T13:37:05Z</time>
      </trkpt>
      <trkpt lat="51.22101222149" lon="4.451704706394">
        <ele>0</ele>
        <time>2019-05-11T13:37:13Z</time>
      </trkpt>
      <trkpt lat="51.221201903887" lon="4.451636226271">
        <ele>0</ele>
        <time>2019-05-11T13:37:21Z</time>
      </trkpt>
      <trkpt lat="51.221389323171" lon="4.451592472753">
        <ele>0</ele>
        <time>2019-05-11T13:37:29Z</time>
      </trkpt>
      <trkpt lat="51.221572216229" lon="4.451501612957">
        <ele>0</ele>
        <time>2019-05-11T13:37:37Z</time>
      </trkpt>
      <trkpt lat="51.221745553921" lon="4.45139994051">
        <ele>0</ele>
        <time>2019-05-11T13:37:43Z</time>
      </trkpt>
      <trkpt lat="51.221932637929" lon="4.451289383249">
        <ele>0.2</ele>
        <time>2019-05-11T13:37:50Z</time>
      </trkpt>
      <trkpt lat="51.222109244562" lon="4.451192739942">
        <ele>0</ele>
        <time>2019-05-11T13:37:57Z</time>
      </trkpt>
      <trkpt lat="51.222302279719" lon="4.451111938426">
        <ele>0</ele>
        <time>2019-05-11T13:38:04Z</time>
      </trkpt>
      <trkpt lat="51.222490285736" lon="4.451075225704">
        <ele>0</ele>
        <time>2019-05-11T13:38:11Z</time>
      </trkpt>
      <trkpt lat="51.222684578178" lon="4.451032310376">
        <ele>0</ele>
        <time>2019-05-11T13:38:18Z</time>
      </trkpt>
      <trkpt lat="51.222842744631" lon="4.451000878251">
        <ele>0</ele>
        <time>2019-05-11T13:38:25Z</time>
      </trkpt>
      <trkpt lat="51.223022955481" lon="4.451078662283">
        <ele>0</ele>
        <time>2019-05-11T13:38:33Z</time>
      </trkpt>
      <trkpt lat="51.223203417788" lon="4.451124930371">
        <ele>0</ele>
        <time>2019-05-11T13:38:41Z</time>
      </trkpt>
      <trkpt lat="51.223395028022" lon="4.451160469627">
        <ele>0</ele>
        <time>2019-05-11T13:38:49Z</time>
      </trkpt>
      <trkpt lat="51.223572808121" lon="4.451216293081">
        <ele>0</ele>
        <time>2019-05-11T13:38:56Z</time>
      </trkpt>
      <trkpt lat="51.223751929324" lon="4.451287874507">
        <ele>0</ele>
        <time>2019-05-11T13:39:03Z</time>
      </trkpt>
      <trkpt lat="51.223952675829" lon="4.451330873654">
        <ele>0</ele>
        <time>2019-05-11T13:39:11Z</time>
      </trkpt>
      <trkpt lat="51.224133221955" lon="4.451224842619">
        <ele>0</ele>
        <time>2019-05-11T13:39:19Z</time>
      </trkpt>
      <trkpt lat="51.224283760879" lon="4.451034405851">
        <ele>0</ele>
        <time>2019-05-11T13:39:27Z</time>
      </trkpt>
      <trkpt lat="51.22440018547" lon="4.450799880289">
        <ele>0</ele>
        <time>2019-05-11T13:39:35Z</time>
      </trkpt>
      <trkpt lat="51.224518202622" lon="4.45057683793">
        <ele>0</ele>
        <time>2019-05-11T13:39:43Z</time>
      </trkpt>
      <trkpt lat="51.224653654126" lon="4.450387071714">
        <ele>0.2</ele>
        <time>2019-05-11T13:39:51Z</time>
      </trkpt>
      <trkpt lat="51.224790865829" lon="4.450167885029">
        <ele>0.6</ele>
        <time>2019-05-11T13:39:59Z</time>
      </trkpt>
      <trkpt lat="51.224985074452" lon="4.449905615378">
        <ele>4</ele>
        <time>2019-05-11T13:40:10Z</time>
      </trkpt>
      <trkpt lat="51.225143576181" lon="4.449769744779">
        <ele>5.4</ele>
        <time>2019-05-11T13:40:18Z</time>
      </trkpt>
      <trkpt lat="51.225335186415" lon="4.449693050394">
        <ele>3</ele>
        <time>2019-05-11T13:40:26Z</time>
      </trkpt>
      <trkpt lat="51.225520594043" lon="4.449674274938">
        <ele>2.2</ele>
        <time>2019-05-11T13:40:33Z</time>
      </trkpt>
      <trkpt lat="51.225703822377" lon="4.449640160605">
        <ele>1.4</ele>
        <time>2019-05-11T13:40:40Z</time>
      </trkpt>
      <trkpt lat="51.225876824793" lon="4.449562292754">
        <ele>0</ele>
        <time>2019-05-11T13:40:47Z</time>
      </trkpt>
      <trkpt lat="51.22604303787" lon="4.449386105216">
        <ele>0</ele>
        <time>2019-05-11T13:40:55Z</time>
      </trkpt>
      <trkpt lat="51.226181003944" lon="4.449159123364">
        <ele>0.4</ele>
        <time>2019-05-11T13:41:03Z</time>
      </trkpt>
      <trkpt lat="51.226273204844" lon="4.448906911993">
        <ele>0</ele>
        <time>2019-05-11T13:41:11Z</time>
      </trkpt>
      <trkpt lat="51.226353922541" lon="4.448622514126">
        <ele>0</ele>
        <time>2019-05-11T13:41:19Z</time>
      </trkpt>
      <trkpt lat="51.226439334102" lon="4.448355885887">
        <ele>0</ele>
        <time>2019-05-11T13:41:26Z</time>
      </trkpt>
      <trkpt lat="51.226548382621" lon="4.448112978425">
        <ele>0.6</ele>
        <time>2019-05-11T13:41:33Z</time>
      </trkpt>
      <trkpt lat="51.226680146089" lon="4.447880967433">
        <ele>3</ele>
        <time>2019-05-11T13:41:40Z</time>
      </trkpt>
      <trkpt lat="51.226826242606" lon="4.447674688874">
        <ele>3</ele>
        <time>2019-05-11T13:41:47Z</time>
      </trkpt>
      <trkpt lat="51.226961023558" lon="4.447485257934">
        <ele>3.6</ele>
        <time>2019-05-11T13:41:54Z</time>
      </trkpt>
      <trkpt lat="51.227093625216" lon="4.447279314651">
        <ele>3.4</ele>
        <time>2019-05-11T13:42:01Z</time>
      </trkpt>
      <trkpt lat="51.2272307531" lon="4.447057194301">
        <ele>3.8</ele>
        <time>2019-05-11T13:42:09Z</time>
      </trkpt>
      <trkpt lat="51.227383052223" lon="4.446855106692">
        <ele>2.6</ele>
        <time>2019-05-11T13:42:18Z</time>
      </trkpt>
      <trkpt lat="51.227535183708" lon="4.446652013255">
        <ele>2.4</ele>
        <time>2019-05-11T13:42:26Z</time>
      </trkpt>
      <trkpt lat="51.227687734288" lon="4.44644204666">
        <ele>1</ele>
        <time>2019-05-11T13:42:34Z</time>
      </trkpt>
      <trkpt lat="51.227821593231" lon="4.446236522472">
        <ele>2.8</ele>
        <time>2019-05-11T13:42:42Z</time>
      </trkpt>
      <trkpt lat="51.227968947033" lon="4.44604306822">
        <ele>3.6</ele>
        <time>2019-05-11T13:42:50Z</time>
      </trkpt>
      <trkpt lat="51.228113534808" lon="4.445847518493">
        <ele>2.6</ele>
        <time>2019-05-11T13:42:58Z</time>
      </trkpt>
      <trkpt lat="51.228241777878" lon="4.445609640171">
        <ele>1.6</ele>
        <time>2019-05-11T13:43:06Z</time>
      </trkpt>
      <trkpt lat="51.228336074253" lon="4.445360027189">
        <ele>0</ele>
        <time>2019-05-11T13:43:14Z</time>
      </trkpt>
      <trkpt lat="51.22841846833" lon="4.445098260452">
        <ele>0</ele>
        <time>2019-05-11T13:43:22Z</time>
      </trkpt>
      <trkpt lat="51.228518464397" lon="4.444829704376">
        <ele>0</ele>
        <time>2019-05-11T13:43:30Z</time>
      </trkpt>
      <trkpt lat="51.228634888988" lon="4.444566680354">
        <ele>0</ele>
        <time>2019-05-11T13:43:38Z</time>
      </trkpt>
      <trkpt lat="51.228789618862" lon="4.444360401795">
        <ele>0</ele>
        <time>2019-05-11T13:43:46Z</time>
      </trkpt>
      <trkpt lat="51.228946863306" lon="4.444172898692">
        <ele>0.8</ele>
        <time>2019-05-11T13:43:53Z</time>
      </trkpt>
      <trkpt lat="51.229093378918" lon="4.443967625961">
        <ele>1.2</ele>
        <time>2019-05-11T13:44:01Z</time>
      </trkpt>
      <trkpt lat="51.229275266148" lon="4.443854218854">
        <ele>2</ele>
        <time>2019-05-11T13:44:09Z</time>
      </trkpt>
      <trkpt lat="51.229452375695" lon="4.443846423687">
        <ele>0</ele>
        <time>2019-05-11T13:44:17Z</time>
      </trkpt>
      <trkpt lat="51.229561927128" lon="4.444076003928">
        <ele>0.4</ele>
        <time>2019-05-11T13:44:24Z</time>
      </trkpt>
      <trkpt lat="51.229659911539" lon="4.444348331859">
        <ele>0</ele>
        <time>2019-05-11T13:44:31Z</time>
      </trkpt>
      <trkpt lat="51.229747250937" lon="4.444642201273">
        <ele>0</ele>
        <time>2019-05-11T13:44:39Z</time>
      </trkpt>
      <trkpt lat="51.229739539589" lon="4.444835823163">
        <ele>0</ele>
        <time>2019-05-11T13:44:44Z</time>
      </trkpt>
      <trkpt lat="51.229616409478" lon="4.445069678173">
        <ele>0.8</ele>
        <time>2019-05-11T13:44:52Z</time>
      </trkpt>
      <trkpt lat="51.229499230516" lon="4.445297665853">
        <ele>2</ele>
        <time>2019-05-11T13:45:00Z</time>
      </trkpt>
      <trkpt lat="51.229380207536" lon="4.445517020176">
        <ele>2</ele>
        <time>2019-05-11T13:45:07Z</time>
      </trkpt>
      <trkpt lat="51.229252635018" lon="4.445751881014">
        <ele>2.6</ele>
        <time>2019-05-11T13:45:15Z</time>
      </trkpt>
      <trkpt lat="51.229124978681" lon="4.445961093238">
        <ele>3.2</ele>
        <time>2019-05-11T13:45:22Z</time>
      </trkpt>
      <trkpt lat="51.229001094199" lon="4.446172233299">
        <ele>2.6</ele>
        <time>2019-05-11T13:45:29Z</time>
      </trkpt>
      <trkpt lat="51.228859272451" lon="4.446401478264">
        <ele>3.4</ele>
        <time>2019-05-11T13:45:37Z</time>
      </trkpt>
      <trkpt lat="51.22872692225" lon="4.446605074615">
        <ele>3.8</ele>
        <time>2019-05-11T13:45:44Z</time>
      </trkpt>
      <trkpt lat="51.228574539308" lon="4.446807246043">
        <ele>4.8</ele>
        <time>2019-05-11T13:45:51Z</time>
      </trkpt>
      <trkpt lat="51.228440680365" lon="4.447014446611">
        <ele>0</ele>
        <time>2019-05-11T13:46:01Z</time>
      </trkpt>
      <trkpt lat="51.228320567738" lon="4.447178061299">
        <ele>0</ele>
        <time>2019-05-11T13:46:18Z</time>
      </trkpt>
      <trkpt lat="51.228355184985" lon="4.447226843957">
        <ele>0</ele>
        <time>2019-05-11T13:46:22Z</time>
      </trkpt>
      <trkpt lat="51.228499521303" lon="4.447449215764">
        <ele>0</ele>
        <time>2019-05-11T13:46:30Z</time>
      </trkpt>
      <trkpt lat="51.228631703866" lon="4.447679466557">
        <ele>0</ele>
        <time>2019-05-11T13:46:37Z</time>
      </trkpt>
      <trkpt lat="51.228765395171" lon="4.447893205007">
        <ele>0</ele>
        <time>2019-05-11T13:46:45Z</time>
      </trkpt>
      <trkpt lat="51.228903025969" lon="4.448119767764">
        <ele>0</ele>
        <time>2019-05-11T13:46:53Z</time>
      </trkpt>
      <trkpt lat="51.229022048949" lon="4.448351946394">
        <ele>0</ele>
        <time>2019-05-11T13:47:01Z</time>
      </trkpt>
      <trkpt lat="51.229149537648" lon="4.448554620736">
        <ele>0</ele>
        <time>2019-05-11T13:47:09Z</time>
      </trkpt>
      <trkpt lat="51.229296304717" lon="4.448760983114">
        <ele>1.2</ele>
        <time>2019-05-11T13:47:17Z</time>
      </trkpt>
      <trkpt lat="51.229385404314" lon="4.449009925544">
        <ele>0.2</ele>
        <time>2019-05-11T13:47:24Z</time>
      </trkpt>
      <trkpt lat="51.229435611895" lon="4.449285773873">
        <ele>0</ele>
        <time>2019-05-11T13:47:31Z</time>
      </trkpt>
      <trkpt lat="51.229469726228" lon="4.449580146201">
        <ele>0</ele>
        <time>2019-05-11T13:47:39Z</time>
      </trkpt>
      <trkpt lat="51.229515407583" lon="4.449890444139">
        <ele>0</ele>
        <time>2019-05-11T13:47:47Z</time>
      </trkpt>
      <trkpt lat="51.229587408104" lon="4.45019127053">
        <ele>0</ele>
        <time>2019-05-11T13:47:55Z</time>
      </trkpt>
      <trkpt lat="51.22965144582" lon="4.450463849918">
        <ele>0</ele>
        <time>2019-05-11T13:48:02Z</time>
      </trkpt>
      <trkpt lat="51.229716070269" lon="4.450731148709">
        <ele>0</ele>
        <time>2019-05-11T13:48:09Z</time>
      </trkpt>
      <trkpt lat="51.229786478229" lon="4.451028789978">
        <ele>0</ele>
        <time>2019-05-11T13:48:17Z</time>
      </trkpt>
      <trkpt lat="51.229824029141" lon="4.451323413763">
        <ele>0</ele>
        <time>2019-05-11T13:48:25Z</time>
      </trkpt>
      <trkpt lat="51.229908015779" lon="4.451463307674">
        <ele>0</ele>
        <time>2019-05-11T13:48:31Z</time>
      </trkpt>
      <trkpt lat="51.230083532765" lon="4.451364317435">
        <ele>0</ele>
        <time>2019-05-11T13:48:40Z</time>
      </trkpt>
      <trkpt lat="51.230257373371" lon="4.451266249205">
        <ele>0</ele>
        <time>2019-05-11T13:48:51Z</time>
      </trkpt>
      <trkpt lat="51.230441356076" lon="4.451210677208">
        <ele>0</ele>
        <time>2019-05-11T13:48:58Z</time>
      </trkpt>
      <trkpt lat="51.230516206443" lon="4.451262644988">
        <ele>0</ele>
        <time>2019-05-11T13:49:01Z</time>
      </trkpt>
      <trkpt lat="51.230598516701" lon="4.451560370076">
        <ele>0</ele>
        <time>2019-05-11T13:49:09Z</time>
      </trkpt>
      <trkpt lat="51.230647802273" lon="4.451841247545">
        <ele>0</ele>
        <time>2019-05-11T13:49:16Z</time>
      </trkpt>
      <trkpt lat="51.230703206632" lon="4.452123047023">
        <ele>0</ele>
        <time>2019-05-11T13:49:23Z</time>
      </trkpt>
      <trkpt lat="51.230764478321" lon="4.452403421578">
        <ele>0</ele>
        <time>2019-05-11T13:49:30Z</time>
      </trkpt>
      <trkpt lat="51.230799598482" lon="4.452701817218">
        <ele>0</ele>
        <time>2019-05-11T13:49:38Z</time>
      </trkpt>
      <trkpt lat="51.230860367257" lon="4.453005409636">
        <ele>0</ele>
        <time>2019-05-11T13:49:46Z</time>
      </trkpt>
      <trkpt lat="51.230914346693" lon="4.453309421149">
        <ele>0</ele>
        <time>2019-05-11T13:49:53Z</time>
      </trkpt>
      <trkpt lat="51.230963548446" lon="4.453608990255">
        <ele>0</ele>
        <time>2019-05-11T13:50:00Z</time>
      </trkpt>
      <trkpt lat="51.231010235629" lon="4.453914259053">
        <ele>0</ele>
        <time>2019-05-11T13:50:07Z</time>
      </trkpt>
      <trkpt lat="51.231057761002" lon="4.454196812902">
        <ele>0</ele>
        <time>2019-05-11T13:50:14Z</time>
      </trkpt>
      <trkpt lat="51.231037309166" lon="4.454262526998">
        <ele>0</ele>
        <time>2019-05-11T13:50:16Z</time>
      </trkpt>
      <trkpt lat="51.230885848233" lon="4.454436032328">
        <ele>0</ele>
        <time>2019-05-11T13:50:25Z</time>
      </trkpt>
      <trkpt lat="51.230712510541" lon="4.454533178549">
        <ele>0</ele>
        <time>2019-05-11T13:50:33Z</time>
      </trkpt>
      <trkpt lat="51.230514278606" lon="4.454484647348">
        <ele>0</ele>
        <time>2019-05-11T13:50:41Z</time>
      </trkpt>
      <trkpt lat="51.230372624496" lon="4.454472661231">
        <ele>4</ele>
        <time>2019-05-11T13:50:47Z</time>
      </trkpt>
      <trkpt lat="51.230265922909" lon="4.45420368606">
        <ele>4.6</ele>
        <time>2019-05-11T13:50:54Z</time>
      </trkpt>
      <trkpt lat="51.230196688415" lon="4.453931693405">
        <ele>1.8</ele>
        <time>2019-05-11T13:51:01Z</time>
      </trkpt>
      <trkpt lat="51.230136254916" lon="4.453636901982">
        <ele>0</ele>
        <time>2019-05-11T13:51:09Z</time>
      </trkpt>
      <trkpt lat="51.230087639896" lon="4.45336130511">
        <ele>0</ele>
        <time>2019-05-11T13:51:16Z</time>
      </trkpt>
      <trkpt lat="51.230041371808" lon="4.453072297198">
        <ele>1</ele>
        <time>2019-05-11T13:51:23Z</time>
      </trkpt>
      <trkpt lat="51.229955289695" lon="4.45279385048">
        <ele>0</ele>
        <time>2019-05-11T13:51:31Z</time>
      </trkpt>
      <trkpt lat="51.22991044653" lon="4.452508782061">
        <ele>0</ele>
        <time>2019-05-11T13:51:38Z</time>
      </trkpt>
      <trkpt lat="51.229885133192" lon="4.452215247923">
        <ele>0</ele>
        <time>2019-05-11T13:51:45Z</time>
      </trkpt>
      <trkpt lat="51.22980567278" lon="4.451924982726">
        <ele>0</ele>
        <time>2019-05-11T13:51:53Z</time>
      </trkpt>
      <trkpt lat="51.229763092728" lon="4.451642680334">
        <ele>0</ele>
        <time>2019-05-11T13:52:00Z</time>
      </trkpt>
      <trkpt lat="51.22969586989" lon="4.451336321889">
        <ele>0</ele>
        <time>2019-05-11T13:52:08Z</time>
      </trkpt>
      <trkpt lat="51.229669718362" lon="4.451031472186">
        <ele>0</ele>
        <time>2019-05-11T13:52:16Z</time>
      </trkpt>
      <trkpt lat="51.229623617912" lon="4.450731651623">
        <ele>0</ele>
        <time>2019-05-11T13:52:24Z</time>
      </trkpt>
      <trkpt lat="51.229574751435" lon="4.450415737812">
        <ele>0</ele>
        <time>2019-05-11T13:52:32Z</time>
      </trkpt>
      <trkpt lat="51.229492524996" lon="4.450134357429">
        <ele>0</ele>
        <time>2019-05-11T13:52:40Z</time>
      </trkpt>
      <trkpt lat="51.229461344328" lon="4.449846271526">
        <ele>0</ele>
        <time>2019-05-11T13:52:48Z</time>
      </trkpt>
      <trkpt lat="51.229392361291" lon="4.449538488158">
        <ele>0</ele>
        <time>2019-05-11T13:52:56Z</time>
      </trkpt>
      <trkpt lat="51.229343410995" lon="4.449262136915">
        <ele>0</ele>
        <time>2019-05-11T13:53:03Z</time>
      </trkpt>
      <trkpt lat="51.229282558401" lon="4.448962064895">
        <ele>0</ele>
        <time>2019-05-11T13:53:11Z</time>
      </trkpt>
      <trkpt lat="51.22918541218" lon="4.448699376149">
        <ele>1.6</ele>
        <time>2019-05-11T13:53:19Z</time>
      </trkpt>
      <trkpt lat="51.229062868802" lon="4.448483626043">
        <ele>0.2</ele>
        <time>2019-05-11T13:53:27Z</time>
      </trkpt>
      <trkpt lat="51.228935128646" lon="4.448246334454">
        <ele>0</ele>
        <time>2019-05-11T13:53:35Z</time>
      </trkpt>
      <trkpt lat="51.228799258047" lon="4.44803209309">
        <ele>0</ele>
        <time>2019-05-11T13:53:43Z</time>
      </trkpt>
      <trkpt lat="51.22865902886" lon="4.447828664377">
        <ele>0</ele>
        <time>2019-05-11T13:53:51Z</time>
      </trkpt>
      <trkpt lat="51.228540927889" lon="4.447593216806">
        <ele>0</ele>
        <time>2019-05-11T13:53:59Z</time>
      </trkpt>
      <trkpt lat="51.228410170249" lon="4.447347627136">
        <ele>0</ele>
        <time>2019-05-11T13:54:07Z</time>
      </trkpt>
      <trkpt lat="51.228365159446" lon="4.447072784635">
        <ele>0</ele>
        <time>2019-05-11T13:54:15Z</time>
      </trkpt>
      <trkpt lat="51.228494827439" lon="4.446863572411">
        <ele>0</ele>
        <time>2019-05-11T13:54:22Z</time>
      </trkpt>
      <trkpt lat="51.228627429097" lon="4.446618234198">
        <ele>4</ele>
        <time>2019-05-11T13:54:29Z</time>
      </trkpt>
      <trkpt lat="51.22875877347" lon="4.446374237089">
        <ele>10.6</ele>
        <time>2019-05-11T13:54:36Z</time>
      </trkpt>
      <trkpt lat="51.228884585789" lon="4.446165779236">
        <ele>13.2</ele>
        <time>2019-05-11T13:54:42Z</time>
      </trkpt>
      <trkpt lat="51.22901525961" lon="4.445924631973">
        <ele>17</ele>
        <time>2019-05-11T13:54:49Z</time>
      </trkpt>
      <trkpt lat="51.229151297847" lon="4.445689938773">
        <ele>21</ele>
        <time>2019-05-11T13:54:56Z</time>
      </trkpt>
      <trkpt lat="51.229294041604" lon="4.445492712666">
        <ele>22.4</ele>
        <time>2019-05-11T13:55:03Z</time>
      </trkpt>
      <trkpt lat="51.229427229995" lon="4.445274531809">
        <ele>23.4</ele>
        <time>2019-05-11T13:55:10Z</time>
      </trkpt>
      <trkpt lat="51.229560250748" lon="4.445066325413">
        <ele>22.6</ele>
        <time>2019-05-11T13:55:18Z</time>
      </trkpt>
      <trkpt lat="51.229722272875" lon="4.444826686892">
        <ele>23.8</ele>
        <time>2019-05-11T13:55:26Z</time>
      </trkpt>
      <trkpt lat="51.229782371098" lon="4.444844372701">
        <ele>17.4</ele>
        <time>2019-05-11T13:55:30Z</time>
      </trkpt>
      <trkpt lat="51.229779521252" lon="4.444950739012">
        <ele>10</ele>
        <time>2019-05-11T13:55:33Z</time>
      </trkpt>
      <trkpt lat="51.22974197034" lon="4.444997510014">
        <ele>5.6</ele>
        <time>2019-05-11T13:55:36Z</time>
      </trkpt>
      <trkpt lat="51.229730403318" lon="4.445015028185">
        <ele>2.2</ele>
        <time>2019-05-11T13:55:39Z</time>
      </trkpt>
      <trkpt lat="51.229704503247" lon="4.445039587152">
        <ele>0.2</ele>
        <time>2019-05-11T13:55:41Z</time>
      </trkpt>
      <trkpt lat="51.229568884105" lon="4.44526690428">
        <ele>0</ele>
        <time>2019-05-11T13:55:51Z</time>
      </trkpt>
      <trkpt lat="51.22943435461" lon="4.44549489196">
        <ele>0</ele>
        <time>2019-05-11T13:55:58Z</time>
      </trkpt>
      <trkpt lat="51.229287084627" lon="4.445709803876">
        <ele>0</ele>
        <time>2019-05-11T13:56:06Z</time>
      </trkpt>
      <trkpt lat="51.229148196544" lon="4.445934857891">
        <ele>0</ele>
        <time>2019-05-11T13:56:14Z</time>
      </trkpt>
      <trkpt lat="51.228960525803" lon="4.446104842823">
        <ele>7.2</ele>
        <time>2019-05-11T13:56:23Z</time>
      </trkpt>
      <trkpt lat="51.228825577213" lon="4.446303326215">
        <ele>12</ele>
        <time>2019-05-11T13:56:30Z</time>
      </trkpt>
      <trkpt lat="51.228680737981" lon="4.446486889825">
        <ele>12.8</ele>
        <time>2019-05-11T13:56:36Z</time>
      </trkpt>
      <trkpt lat="51.228519134949" lon="4.446677494231">
        <ele>12.6</ele>
        <time>2019-05-11T13:56:43Z</time>
      </trkpt>
      <trkpt lat="51.228413271552" lon="4.446936914036">
        <ele>10.4</ele>
        <time>2019-05-11T13:56:50Z</time>
      </trkpt>
      <trkpt lat="51.228497342009" lon="4.447209996338">
        <ele>4</ele>
        <time>2019-05-11T13:56:56Z</time>
      </trkpt>
      <trkpt lat="51.228624914527" lon="4.447441839692">
        <ele>0.8</ele>
        <time>2019-05-11T13:57:02Z</time>
      </trkpt>
      <trkpt lat="51.228746032982" lon="4.447676365254">
        <ele>0</ele>
        <time>2019-05-11T13:57:09Z</time>
      </trkpt>
      <trkpt lat="51.228839994081" lon="4.44792564296">
        <ele>0</ele>
        <time>2019-05-11T13:57:16Z</time>
      </trkpt>
      <trkpt lat="51.228970584083" lon="4.448161258169">
        <ele>0</ele>
        <time>2019-05-11T13:57:23Z</time>
      </trkpt>
      <trkpt lat="51.229098072782" lon="4.448395280817">
        <ele>0</ele>
        <time>2019-05-11T13:57:30Z</time>
      </trkpt>
      <trkpt lat="51.22925162919" lon="4.448582364825">
        <ele>0</ele>
        <time>2019-05-11T13:57:37Z</time>
      </trkpt>
      <trkpt lat="51.22926587842" lon="4.448640116116">
        <ele>0</ele>
        <time>2019-05-11T13:57:39Z</time>
      </trkpt>
      <trkpt lat="51.229245594222" lon="4.448666351463">
        <ele>0</ele>
        <time>2019-05-11T13:57:41Z</time>
      </trkpt>
      <trkpt lat="51.229077956222" lon="4.448537689298">
        <ele>0</ele>
        <time>2019-05-11T13:57:48Z</time>
      </trkpt>
      <trkpt lat="51.228922388158" lon="4.448650509672">
        <ele>0</ele>
        <time>2019-05-11T13:57:57Z</time>
      </trkpt>
      <trkpt lat="51.228920292683" lon="4.448693508819">
        <ele>0</ele>
        <time>2019-05-11T13:58:01Z</time>
      </trkpt>
      <trkpt lat="51.229046775554" lon="4.448489074278">
        <ele>0</ele>
        <time>2019-05-11T13:58:11Z</time>
      </trkpt>
      <trkpt lat="51.229073681453" lon="4.448398885034">
        <ele>0</ele>
        <time>2019-05-11T13:58:12Z</time>
      </trkpt>
      <trkpt lat="51.22907058015" lon="4.448367452909">
        <ele>0</ele>
        <time>2019-05-11T13:58:14Z</time>
      </trkpt>
      <trkpt lat="51.229082650086" lon="4.448357813724">
        <ele>0</ele>
        <time>2019-05-11T13:58:17Z</time>
      </trkpt>
      <trkpt lat="51.229087679226" lon="4.448398214482">
        <ele>0</ele>
        <time>2019-05-11T13:58:19Z</time>
      </trkpt>
      <trkpt lat="51.228831863638" lon="4.448879000266">
        <ele>0</ele>
        <time>2019-05-11T13:58:34Z</time>
      </trkpt>
      <trkpt lat="51.228695406306" lon="4.44910581448">
        <ele>0</ele>
        <time>2019-05-11T13:58:42Z</time>
      </trkpt>
      <trkpt lat="51.228609659469" lon="4.449219975958">
        <ele>0</ele>
        <time>2019-05-11T13:58:48Z</time>
      </trkpt>
      <trkpt lat="51.2286137666" lon="4.449203715072">
        <ele>0</ele>
        <time>2019-05-11T13:58:50Z</time>
      </trkpt>
      <trkpt lat="51.228774950537" lon="4.449019648548">
        <ele>0</ele>
        <time>2019-05-11T13:58:59Z</time>
      </trkpt>
      <trkpt lat="51.22882834324" lon="4.448876234239">
        <ele>0</ele>
        <time>2019-05-11T13:59:04Z</time>
      </trkpt>
      <trkpt lat="51.228798503676" lon="4.448837174585">
        <ele>0</ele>
        <time>2019-05-11T13:59:08Z</time>
      </trkpt>
      <trkpt lat="51.228702195645" lon="4.44909072706">
        <ele>0</ele>
        <time>2019-05-11T13:59:17Z</time>
      </trkpt>
      <trkpt lat="51.228637822653" lon="4.449173372594">
        <ele>0</ele>
        <time>2019-05-11T13:59:22Z</time>
      </trkpt>
    </trkseg>
  </trk>
</gpx>